<?xml version="1.0" encoding="UTF-8" standalone="no" ?>
<gpx xmlns="http://www.topografix.com/GPX/1/1" xmlns:xsi="http://www.w3.org/2001/XMLSchema-instance" xsi:schemaLocation="http://www.topografix.com/GPX/1/1 http://www.topografix.com/GPX/1/1/gpx.xsd" version="1.1" creator="VisuGPX - https://www.visugpx.com">
  <metadata>
    <name>83-L-Entrecasteaux-13oct2025</name>
    <desc><![CDATA[83-L-Entrecasteaux-13oct2025
De la Bresque à l'Argens]]></desc>
  </metadata>
  <trk>
    <name><![CDATA[2025-10-13-01]]></name>
    <extensions>
      <line xmlns="http://www.topografix.com/GPX/gpx_style/0/2">
        <width>4</width>
      </line>
    </extensions>
    <trkseg>
      <trkpt lat="43.48651" lon="6.2346">
        <ele>134</ele>
        <time>2025-10-13T06:59:00.000Z</time>
      </trkpt>
      <trkpt lat="43.4865" lon="6.2346">
        <ele>134</ele>
        <time>2025-10-13T06:59:01.000Z</time>
      </trkpt>
      <trkpt lat="43.4864" lon="6.23462">
        <ele>128</ele>
        <time>2025-10-13T07:00:41.000Z</time>
      </trkpt>
      <trkpt lat="43.48631" lon="6.23464">
        <ele>129.1</ele>
        <time>2025-10-13T07:00:52.000Z</time>
      </trkpt>
      <trkpt lat="43.48621" lon="6.23469">
        <ele>129.9</ele>
        <time>2025-10-13T07:01:01.000Z</time>
      </trkpt>
      <trkpt lat="43.48612" lon="6.23472">
        <ele>129.1</ele>
        <time>2025-10-13T07:01:09.000Z</time>
      </trkpt>
      <trkpt lat="43.48607" lon="6.23461">
        <ele>128.6</ele>
        <time>2025-10-13T07:01:17.000Z</time>
      </trkpt>
      <trkpt lat="43.48605" lon="6.23447">
        <ele>127.7</ele>
        <time>2025-10-13T07:01:25.000Z</time>
      </trkpt>
      <trkpt lat="43.48603" lon="6.2346">
        <ele>128</ele>
        <time>2025-10-13T07:02:25.000Z</time>
      </trkpt>
      <trkpt lat="43.48609" lon="6.23471">
        <ele>126.5</ele>
        <time>2025-10-13T07:02:35.000Z</time>
      </trkpt>
      <trkpt lat="43.48608" lon="6.23457">
        <ele>126.3</ele>
        <time>2025-10-13T07:04:09.000Z</time>
      </trkpt>
      <trkpt lat="43.48609" lon="6.23444">
        <ele>126.1</ele>
        <time>2025-10-13T07:04:18.000Z</time>
      </trkpt>
      <trkpt lat="43.48604" lon="6.23455">
        <ele>127.9</ele>
        <time>2025-10-13T07:05:20.000Z</time>
      </trkpt>
      <trkpt lat="43.48607" lon="6.23468">
        <ele>126</ele>
        <time>2025-10-13T07:05:30.000Z</time>
      </trkpt>
      <trkpt lat="43.48601" lon="6.23459">
        <ele>130.6</ele>
        <time>2025-10-13T07:07:24.000Z</time>
      </trkpt>
      <trkpt lat="43.48599" lon="6.23446">
        <ele>127.7</ele>
        <time>2025-10-13T07:07:35.000Z</time>
      </trkpt>
      <trkpt lat="43.48597" lon="6.23433">
        <ele>125.8</ele>
        <time>2025-10-13T07:07:51.000Z</time>
      </trkpt>
      <trkpt lat="43.48595" lon="6.2342">
        <ele>126</ele>
        <time>2025-10-13T07:08:01.000Z</time>
      </trkpt>
      <trkpt lat="43.48593" lon="6.23408">
        <ele>125.3</ele>
        <time>2025-10-13T07:08:10.000Z</time>
      </trkpt>
      <trkpt lat="43.48592" lon="6.23395">
        <ele>123.7</ele>
        <time>2025-10-13T07:08:38.000Z</time>
      </trkpt>
      <trkpt lat="43.48589" lon="6.23383">
        <ele>121.7</ele>
        <time>2025-10-13T07:08:54.000Z</time>
      </trkpt>
      <trkpt lat="43.48586" lon="6.23371">
        <ele>120.1</ele>
        <time>2025-10-13T07:09:04.000Z</time>
      </trkpt>
      <trkpt lat="43.48584" lon="6.23358">
        <ele>120.2</ele>
        <time>2025-10-13T07:09:13.000Z</time>
      </trkpt>
      <trkpt lat="43.48582" lon="6.23345">
        <ele>122.2</ele>
        <time>2025-10-13T07:09:26.000Z</time>
      </trkpt>
      <trkpt lat="43.4858" lon="6.23332">
        <ele>124</ele>
        <time>2025-10-13T07:09:37.000Z</time>
      </trkpt>
      <trkpt lat="43.48578" lon="6.2332">
        <ele>123.7</ele>
        <time>2025-10-13T07:09:47.000Z</time>
      </trkpt>
      <trkpt lat="43.48573" lon="6.2331">
        <ele>121.8</ele>
        <time>2025-10-13T07:10:01.000Z</time>
      </trkpt>
      <trkpt lat="43.48564" lon="6.23306">
        <ele>118.4</ele>
        <time>2025-10-13T07:10:13.000Z</time>
      </trkpt>
      <trkpt lat="43.48555" lon="6.23301">
        <ele>114.3</ele>
        <time>2025-10-13T07:10:25.000Z</time>
      </trkpt>
      <trkpt lat="43.48545" lon="6.23298">
        <ele>113.9</ele>
        <time>2025-10-13T07:10:32.000Z</time>
      </trkpt>
      <trkpt lat="43.48536" lon="6.23298">
        <ele>113.6</ele>
        <time>2025-10-13T07:10:47.000Z</time>
      </trkpt>
      <trkpt lat="43.48526" lon="6.23295">
        <ele>112.6</ele>
        <time>2025-10-13T07:10:55.000Z</time>
      </trkpt>
      <trkpt lat="43.48517" lon="6.23292">
        <ele>113</ele>
        <time>2025-10-13T07:11:02.000Z</time>
      </trkpt>
      <trkpt lat="43.48507" lon="6.2329">
        <ele>111.5</ele>
        <time>2025-10-13T07:11:11.000Z</time>
      </trkpt>
      <trkpt lat="43.48497" lon="6.23287">
        <ele>111.6</ele>
        <time>2025-10-13T07:11:19.000Z</time>
      </trkpt>
      <trkpt lat="43.48488" lon="6.23285">
        <ele>112.2</ele>
        <time>2025-10-13T07:11:30.000Z</time>
      </trkpt>
      <trkpt lat="43.48479" lon="6.23284">
        <ele>112.9</ele>
        <time>2025-10-13T07:11:37.000Z</time>
      </trkpt>
      <trkpt lat="43.4847" lon="6.23281">
        <ele>112.3</ele>
        <time>2025-10-13T07:11:46.000Z</time>
      </trkpt>
      <trkpt lat="43.48461" lon="6.23279">
        <ele>111.6</ele>
        <time>2025-10-13T07:11:55.000Z</time>
      </trkpt>
      <trkpt lat="43.48451" lon="6.23277">
        <ele>112</ele>
        <time>2025-10-13T07:12:03.000Z</time>
      </trkpt>
      <trkpt lat="43.48442" lon="6.23275">
        <ele>112.5</ele>
        <time>2025-10-13T07:12:11.000Z</time>
      </trkpt>
      <trkpt lat="43.48433" lon="6.23272">
        <ele>113.4</ele>
        <time>2025-10-13T07:12:20.000Z</time>
      </trkpt>
      <trkpt lat="43.48424" lon="6.2327">
        <ele>114.2</ele>
        <time>2025-10-13T07:12:28.000Z</time>
      </trkpt>
      <trkpt lat="43.48414" lon="6.23267">
        <ele>114.6</ele>
        <time>2025-10-13T07:12:36.000Z</time>
      </trkpt>
      <trkpt lat="43.48404" lon="6.23266">
        <ele>115.8</ele>
        <time>2025-10-13T07:12:45.000Z</time>
      </trkpt>
      <trkpt lat="43.48395" lon="6.23265">
        <ele>118.8</ele>
        <time>2025-10-13T07:12:53.000Z</time>
      </trkpt>
      <trkpt lat="43.48386" lon="6.23262">
        <ele>118.3</ele>
        <time>2025-10-13T07:13:01.000Z</time>
      </trkpt>
      <trkpt lat="43.48378" lon="6.23258">
        <ele>117.2</ele>
        <time>2025-10-13T07:13:09.000Z</time>
      </trkpt>
      <trkpt lat="43.48368" lon="6.23256">
        <ele>113.9</ele>
        <time>2025-10-13T07:13:18.000Z</time>
      </trkpt>
      <trkpt lat="43.48359" lon="6.23254">
        <ele>112.6</ele>
        <time>2025-10-13T07:13:27.000Z</time>
      </trkpt>
      <trkpt lat="43.48349" lon="6.23252">
        <ele>112.3</ele>
        <time>2025-10-13T07:13:37.000Z</time>
      </trkpt>
      <trkpt lat="43.48341" lon="6.23256">
        <ele>113.9</ele>
        <time>2025-10-13T07:13:48.000Z</time>
      </trkpt>
      <trkpt lat="43.48333" lon="6.23264">
        <ele>112.3</ele>
        <time>2025-10-13T07:13:58.000Z</time>
      </trkpt>
      <trkpt lat="43.48326" lon="6.23272">
        <ele>112.4</ele>
        <time>2025-10-13T07:14:06.000Z</time>
      </trkpt>
      <trkpt lat="43.48322" lon="6.23283">
        <ele>108.4</ele>
        <time>2025-10-13T07:14:15.000Z</time>
      </trkpt>
      <trkpt lat="43.48319" lon="6.23295">
        <ele>109.3</ele>
        <time>2025-10-13T07:14:25.000Z</time>
      </trkpt>
      <trkpt lat="43.48321" lon="6.23307">
        <ele>110</ele>
        <time>2025-10-13T07:14:35.000Z</time>
      </trkpt>
      <trkpt lat="43.48324" lon="6.2332">
        <ele>116.1</ele>
        <time>2025-10-13T07:17:45.000Z</time>
      </trkpt>
      <trkpt lat="43.48323" lon="6.23332">
        <ele>113.6</ele>
        <time>2025-10-13T07:18:20.000Z</time>
      </trkpt>
      <trkpt lat="43.48322" lon="6.23345">
        <ele>111.6</ele>
        <time>2025-10-13T07:18:29.000Z</time>
      </trkpt>
      <trkpt lat="43.48324" lon="6.23358">
        <ele>107.6</ele>
        <time>2025-10-13T07:18:37.000Z</time>
      </trkpt>
      <trkpt lat="43.48326" lon="6.2337">
        <ele>110.6</ele>
        <time>2025-10-13T07:18:45.000Z</time>
      </trkpt>
      <trkpt lat="43.48329" lon="6.23383">
        <ele>113.7</ele>
        <time>2025-10-13T07:18:52.000Z</time>
      </trkpt>
      <trkpt lat="43.4833" lon="6.23395">
        <ele>114.1</ele>
        <time>2025-10-13T07:19:00.000Z</time>
      </trkpt>
      <trkpt lat="43.48333" lon="6.23408">
        <ele>116.2</ele>
        <time>2025-10-13T07:19:08.000Z</time>
      </trkpt>
      <trkpt lat="43.48334" lon="6.2342">
        <ele>116.7</ele>
        <time>2025-10-13T07:19:15.000Z</time>
      </trkpt>
      <trkpt lat="43.48336" lon="6.23433">
        <ele>117.5</ele>
        <time>2025-10-13T07:19:22.000Z</time>
      </trkpt>
      <trkpt lat="43.48337" lon="6.23446">
        <ele>116.1</ele>
        <time>2025-10-13T07:19:30.000Z</time>
      </trkpt>
      <trkpt lat="43.48343" lon="6.23456">
        <ele>117.3</ele>
        <time>2025-10-13T07:19:39.000Z</time>
      </trkpt>
      <trkpt lat="43.4835" lon="6.23463">
        <ele>117.1</ele>
        <time>2025-10-13T07:19:49.000Z</time>
      </trkpt>
      <trkpt lat="43.48359" lon="6.2347">
        <ele>118.7</ele>
        <time>2025-10-13T07:19:58.000Z</time>
      </trkpt>
      <trkpt lat="43.48366" lon="6.23479">
        <ele>116.7</ele>
        <time>2025-10-13T07:20:06.000Z</time>
      </trkpt>
      <trkpt lat="43.48372" lon="6.2349">
        <ele>116.3</ele>
        <time>2025-10-13T07:20:15.000Z</time>
      </trkpt>
      <trkpt lat="43.48373" lon="6.23503">
        <ele>116.7</ele>
        <time>2025-10-13T07:20:26.000Z</time>
      </trkpt>
      <trkpt lat="43.48372" lon="6.23517">
        <ele>118.7</ele>
        <time>2025-10-13T07:20:39.000Z</time>
      </trkpt>
      <trkpt lat="43.4837" lon="6.23529">
        <ele>118.9</ele>
        <time>2025-10-13T07:20:47.000Z</time>
      </trkpt>
      <trkpt lat="43.48368" lon="6.23542">
        <ele>119.5</ele>
        <time>2025-10-13T07:20:54.000Z</time>
      </trkpt>
      <trkpt lat="43.48366" lon="6.23554">
        <ele>121.9</ele>
        <time>2025-10-13T07:21:01.000Z</time>
      </trkpt>
      <trkpt lat="43.48363" lon="6.23568">
        <ele>123.2</ele>
        <time>2025-10-13T07:21:08.000Z</time>
      </trkpt>
      <trkpt lat="43.48364" lon="6.23581">
        <ele>126.4</ele>
        <time>2025-10-13T07:21:17.000Z</time>
      </trkpt>
      <trkpt lat="43.48361" lon="6.23594">
        <ele>128.2</ele>
        <time>2025-10-13T07:21:26.000Z</time>
      </trkpt>
      <trkpt lat="43.4836" lon="6.23608">
        <ele>126.4</ele>
        <time>2025-10-13T07:21:37.000Z</time>
      </trkpt>
      <trkpt lat="43.4836" lon="6.23621">
        <ele>124</ele>
        <time>2025-10-13T07:21:47.000Z</time>
      </trkpt>
      <trkpt lat="43.48362" lon="6.23633">
        <ele>122</ele>
        <time>2025-10-13T07:21:59.000Z</time>
      </trkpt>
      <trkpt lat="43.48367" lon="6.23643">
        <ele>120.2</ele>
        <time>2025-10-13T07:22:09.000Z</time>
      </trkpt>
      <trkpt lat="43.48377" lon="6.23646">
        <ele>119.6</ele>
        <time>2025-10-13T07:22:21.000Z</time>
      </trkpt>
      <trkpt lat="43.48386" lon="6.23646">
        <ele>119</ele>
        <time>2025-10-13T07:22:34.000Z</time>
      </trkpt>
      <trkpt lat="43.48395" lon="6.23644">
        <ele>119.7</ele>
        <time>2025-10-13T07:22:45.000Z</time>
      </trkpt>
      <trkpt lat="43.48403" lon="6.23648">
        <ele>120.4</ele>
        <time>2025-10-13T07:23:00.000Z</time>
      </trkpt>
      <trkpt lat="43.4841" lon="6.23658">
        <ele>121.7</ele>
        <time>2025-10-13T07:23:17.000Z</time>
      </trkpt>
      <trkpt lat="43.48414" lon="6.23669">
        <ele>119.4</ele>
        <time>2025-10-13T07:23:29.000Z</time>
      </trkpt>
      <trkpt lat="43.48419" lon="6.2368">
        <ele>118.8</ele>
        <time>2025-10-13T07:23:44.000Z</time>
      </trkpt>
      <trkpt lat="43.4842" lon="6.23693">
        <ele>119.3</ele>
        <time>2025-10-13T07:23:58.000Z</time>
      </trkpt>
      <trkpt lat="43.48423" lon="6.23705">
        <ele>120.8</ele>
        <time>2025-10-13T07:24:13.000Z</time>
      </trkpt>
      <trkpt lat="43.48426" lon="6.23719">
        <ele>121.8</ele>
        <time>2025-10-13T07:24:23.000Z</time>
      </trkpt>
      <trkpt lat="43.48428" lon="6.23732">
        <ele>123.8</ele>
        <time>2025-10-13T07:24:34.000Z</time>
      </trkpt>
      <trkpt lat="43.48431" lon="6.23743">
        <ele>124.9</ele>
        <time>2025-10-13T07:24:42.000Z</time>
      </trkpt>
      <trkpt lat="43.48431" lon="6.23757">
        <ele>126</ele>
        <time>2025-10-13T07:24:53.000Z</time>
      </trkpt>
      <trkpt lat="43.48434" lon="6.2377">
        <ele>125.9</ele>
        <time>2025-10-13T07:25:01.000Z</time>
      </trkpt>
      <trkpt lat="43.48437" lon="6.23782">
        <ele>127.4</ele>
        <time>2025-10-13T07:25:10.000Z</time>
      </trkpt>
      <trkpt lat="43.48439" lon="6.23794">
        <ele>127.4</ele>
        <time>2025-10-13T07:25:22.000Z</time>
      </trkpt>
      <trkpt lat="43.4844" lon="6.23807">
        <ele>127</ele>
        <time>2025-10-13T07:25:32.000Z</time>
      </trkpt>
      <trkpt lat="43.48444" lon="6.23818">
        <ele>131.3</ele>
        <time>2025-10-13T07:25:44.000Z</time>
      </trkpt>
      <trkpt lat="43.48446" lon="6.2383">
        <ele>133.8</ele>
        <time>2025-10-13T07:25:56.000Z</time>
      </trkpt>
      <trkpt lat="43.48447" lon="6.23843">
        <ele>133.9</ele>
        <time>2025-10-13T07:26:06.000Z</time>
      </trkpt>
      <trkpt lat="43.4845" lon="6.23855">
        <ele>134.9</ele>
        <time>2025-10-13T07:26:15.000Z</time>
      </trkpt>
      <trkpt lat="43.48453" lon="6.23867">
        <ele>138.2</ele>
        <time>2025-10-13T07:26:27.000Z</time>
      </trkpt>
      <trkpt lat="43.48453" lon="6.2388">
        <ele>139.2</ele>
        <time>2025-10-13T07:26:39.000Z</time>
      </trkpt>
      <trkpt lat="43.48457" lon="6.23892">
        <ele>136.2</ele>
        <time>2025-10-13T07:26:53.000Z</time>
      </trkpt>
      <trkpt lat="43.4846" lon="6.23903">
        <ele>133.4</ele>
        <time>2025-10-13T07:27:08.000Z</time>
      </trkpt>
      <trkpt lat="43.48463" lon="6.23916">
        <ele>130.4</ele>
        <time>2025-10-13T07:27:19.000Z</time>
      </trkpt>
      <trkpt lat="43.48466" lon="6.23928">
        <ele>129.2</ele>
        <time>2025-10-13T07:27:30.000Z</time>
      </trkpt>
      <trkpt lat="43.48471" lon="6.2394">
        <ele>130.2</ele>
        <time>2025-10-13T07:27:49.000Z</time>
      </trkpt>
      <trkpt lat="43.48477" lon="6.2395">
        <ele>129.3</ele>
        <time>2025-10-13T07:28:01.000Z</time>
      </trkpt>
      <trkpt lat="43.48482" lon="6.2396">
        <ele>131</ele>
        <time>2025-10-13T07:28:22.000Z</time>
      </trkpt>
      <trkpt lat="43.48485" lon="6.23973">
        <ele>129.9</ele>
        <time>2025-10-13T07:28:35.000Z</time>
      </trkpt>
      <trkpt lat="43.48489" lon="6.23984">
        <ele>128.9</ele>
        <time>2025-10-13T07:28:46.000Z</time>
      </trkpt>
      <trkpt lat="43.48492" lon="6.23996">
        <ele>128.8</ele>
        <time>2025-10-13T07:28:54.000Z</time>
      </trkpt>
      <trkpt lat="43.48495" lon="6.24009">
        <ele>127.8</ele>
        <time>2025-10-13T07:29:05.000Z</time>
      </trkpt>
      <trkpt lat="43.48497" lon="6.24021">
        <ele>127.7</ele>
        <time>2025-10-13T07:29:14.000Z</time>
      </trkpt>
      <trkpt lat="43.485" lon="6.24032">
        <ele>127.6</ele>
        <time>2025-10-13T07:29:23.000Z</time>
      </trkpt>
      <trkpt lat="43.48505" lon="6.24044">
        <ele>128.1</ele>
        <time>2025-10-13T07:29:33.000Z</time>
      </trkpt>
      <trkpt lat="43.4851" lon="6.24055">
        <ele>125.4</ele>
        <time>2025-10-13T07:29:42.000Z</time>
      </trkpt>
      <trkpt lat="43.48516" lon="6.24066">
        <ele>128.2</ele>
        <time>2025-10-13T07:29:54.000Z</time>
      </trkpt>
      <trkpt lat="43.48521" lon="6.24076">
        <ele>124.4</ele>
        <time>2025-10-13T07:30:05.000Z</time>
      </trkpt>
      <trkpt lat="43.48524" lon="6.24088">
        <ele>122.7</ele>
        <time>2025-10-13T07:30:17.000Z</time>
      </trkpt>
      <trkpt lat="43.48527" lon="6.241">
        <ele>124.6</ele>
        <time>2025-10-13T07:30:26.000Z</time>
      </trkpt>
      <trkpt lat="43.48531" lon="6.24112">
        <ele>125.2</ele>
        <time>2025-10-13T07:30:39.000Z</time>
      </trkpt>
      <trkpt lat="43.48536" lon="6.24123">
        <ele>123.7</ele>
        <time>2025-10-13T07:30:51.000Z</time>
      </trkpt>
      <trkpt lat="43.48545" lon="6.2412">
        <ele>124.6</ele>
        <time>2025-10-13T07:31:06.000Z</time>
      </trkpt>
      <trkpt lat="43.48547" lon="6.24107">
        <ele>124.6</ele>
        <time>2025-10-13T07:31:18.000Z</time>
      </trkpt>
      <trkpt lat="43.48552" lon="6.24096">
        <ele>125.3</ele>
        <time>2025-10-13T07:31:28.000Z</time>
      </trkpt>
      <trkpt lat="43.48555" lon="6.24084">
        <ele>126.6</ele>
        <time>2025-10-13T07:31:40.000Z</time>
      </trkpt>
      <trkpt lat="43.48557" lon="6.24071">
        <ele>123.8</ele>
        <time>2025-10-13T07:31:52.000Z</time>
      </trkpt>
      <trkpt lat="43.48562" lon="6.24061">
        <ele>122.2</ele>
        <time>2025-10-13T07:32:03.000Z</time>
      </trkpt>
      <trkpt lat="43.48571" lon="6.24057">
        <ele>120.7</ele>
        <time>2025-10-13T07:32:14.000Z</time>
      </trkpt>
      <trkpt lat="43.4858" lon="6.2406">
        <ele>117.2</ele>
        <time>2025-10-13T07:32:26.000Z</time>
      </trkpt>
      <trkpt lat="43.48589" lon="6.24064">
        <ele>116</ele>
        <time>2025-10-13T07:32:36.000Z</time>
      </trkpt>
      <trkpt lat="43.48599" lon="6.24067">
        <ele>117.7</ele>
        <time>2025-10-13T07:32:45.000Z</time>
      </trkpt>
      <trkpt lat="43.48608" lon="6.2407">
        <ele>118.4</ele>
        <time>2025-10-13T07:32:55.000Z</time>
      </trkpt>
      <trkpt lat="43.48617" lon="6.24073">
        <ele>120.4</ele>
        <time>2025-10-13T07:33:05.000Z</time>
      </trkpt>
      <trkpt lat="43.48627" lon="6.24074">
        <ele>119</ele>
        <time>2025-10-13T07:33:15.000Z</time>
      </trkpt>
      <trkpt lat="43.48636" lon="6.24075">
        <ele>118.3</ele>
        <time>2025-10-13T07:33:25.000Z</time>
      </trkpt>
      <trkpt lat="43.48646" lon="6.24077">
        <ele>117.6</ele>
        <time>2025-10-13T07:33:36.000Z</time>
      </trkpt>
      <trkpt lat="43.48655" lon="6.24079">
        <ele>116.8</ele>
        <time>2025-10-13T07:33:46.000Z</time>
      </trkpt>
      <trkpt lat="43.48665" lon="6.2408">
        <ele>116.9</ele>
        <time>2025-10-13T07:33:56.000Z</time>
      </trkpt>
      <trkpt lat="43.48674" lon="6.24082">
        <ele>116.4</ele>
        <time>2025-10-13T07:34:06.000Z</time>
      </trkpt>
      <trkpt lat="43.48684" lon="6.24083">
        <ele>117.4</ele>
        <time>2025-10-13T07:34:15.000Z</time>
      </trkpt>
      <trkpt lat="43.48693" lon="6.24085">
        <ele>118</ele>
        <time>2025-10-13T07:34:26.000Z</time>
      </trkpt>
      <trkpt lat="43.48701" lon="6.24089">
        <ele>119.1</ele>
        <time>2025-10-13T07:34:37.000Z</time>
      </trkpt>
      <trkpt lat="43.4871" lon="6.24095">
        <ele>117</ele>
        <time>2025-10-13T07:34:46.000Z</time>
      </trkpt>
      <trkpt lat="43.48719" lon="6.24097">
        <ele>119.5</ele>
        <time>2025-10-13T07:34:56.000Z</time>
      </trkpt>
      <trkpt lat="43.48729" lon="6.24094">
        <ele>120</ele>
        <time>2025-10-13T07:35:07.000Z</time>
      </trkpt>
      <trkpt lat="43.48737" lon="6.24087">
        <ele>119.9</ele>
        <time>2025-10-13T07:35:17.000Z</time>
      </trkpt>
      <trkpt lat="43.48744" lon="6.24078">
        <ele>123.2</ele>
        <time>2025-10-13T07:35:29.000Z</time>
      </trkpt>
      <trkpt lat="43.48749" lon="6.24067">
        <ele>123.8</ele>
        <time>2025-10-13T07:35:39.000Z</time>
      </trkpt>
      <trkpt lat="43.48752" lon="6.24055">
        <ele>125.5</ele>
        <time>2025-10-13T07:35:52.000Z</time>
      </trkpt>
      <trkpt lat="43.48761" lon="6.24051">
        <ele>122</ele>
        <time>2025-10-13T07:36:42.000Z</time>
      </trkpt>
      <trkpt lat="43.48762" lon="6.24038">
        <ele>129.8</ele>
        <time>2025-10-13T07:36:59.000Z</time>
      </trkpt>
      <trkpt lat="43.48766" lon="6.24026">
        <ele>134.6</ele>
        <time>2025-10-13T07:37:11.000Z</time>
      </trkpt>
      <trkpt lat="43.48774" lon="6.24018">
        <ele>138.5</ele>
        <time>2025-10-13T07:37:23.000Z</time>
      </trkpt>
      <trkpt lat="43.48782" lon="6.24009">
        <ele>135.7</ele>
        <time>2025-10-13T07:37:32.000Z</time>
      </trkpt>
      <trkpt lat="43.48786" lon="6.23997">
        <ele>145.8</ele>
        <time>2025-10-13T07:37:42.000Z</time>
      </trkpt>
      <trkpt lat="43.48794" lon="6.23993">
        <ele>135</ele>
        <time>2025-10-13T07:37:46.000Z</time>
      </trkpt>
      <trkpt lat="43.48802" lon="6.23984">
        <ele>132.5</ele>
        <time>2025-10-13T07:37:56.000Z</time>
      </trkpt>
      <trkpt lat="43.48808" lon="6.23974">
        <ele>130.5</ele>
        <time>2025-10-13T07:38:09.000Z</time>
      </trkpt>
      <trkpt lat="43.48816" lon="6.23968">
        <ele>122.5</ele>
        <time>2025-10-13T07:38:17.000Z</time>
      </trkpt>
      <trkpt lat="43.48824" lon="6.23963">
        <ele>123.1</ele>
        <time>2025-10-13T07:38:36.000Z</time>
      </trkpt>
      <trkpt lat="43.48833" lon="6.23958">
        <ele>121</ele>
        <time>2025-10-13T07:38:57.000Z</time>
      </trkpt>
      <trkpt lat="43.48842" lon="6.23954">
        <ele>120</ele>
        <time>2025-10-13T07:39:07.000Z</time>
      </trkpt>
      <trkpt lat="43.48851" lon="6.23952">
        <ele>118.9</ele>
        <time>2025-10-13T07:39:17.000Z</time>
      </trkpt>
      <trkpt lat="43.4886" lon="6.23946">
        <ele>119.1</ele>
        <time>2025-10-13T07:39:25.000Z</time>
      </trkpt>
      <trkpt lat="43.48869" lon="6.2394">
        <ele>118.2</ele>
        <time>2025-10-13T07:39:34.000Z</time>
      </trkpt>
      <trkpt lat="43.48878" lon="6.23939">
        <ele>117.8</ele>
        <time>2025-10-13T07:39:42.000Z</time>
      </trkpt>
      <trkpt lat="43.48888" lon="6.23937">
        <ele>114.3</ele>
        <time>2025-10-13T07:39:51.000Z</time>
      </trkpt>
      <trkpt lat="43.48897" lon="6.23935">
        <ele>110.8</ele>
        <time>2025-10-13T07:40:01.000Z</time>
      </trkpt>
      <trkpt lat="43.48906" lon="6.23931">
        <ele>111.1</ele>
        <time>2025-10-13T07:40:11.000Z</time>
      </trkpt>
      <trkpt lat="43.48915" lon="6.23929">
        <ele>116.8</ele>
        <time>2025-10-13T07:40:21.000Z</time>
      </trkpt>
      <trkpt lat="43.48924" lon="6.23926">
        <ele>115.2</ele>
        <time>2025-10-13T07:40:30.000Z</time>
      </trkpt>
      <trkpt lat="43.48934" lon="6.23922">
        <ele>117.7</ele>
        <time>2025-10-13T07:40:38.000Z</time>
      </trkpt>
      <trkpt lat="43.48942" lon="6.23918">
        <ele>118.1</ele>
        <time>2025-10-13T07:40:45.000Z</time>
      </trkpt>
      <trkpt lat="43.48951" lon="6.23912">
        <ele>118.7</ele>
        <time>2025-10-13T07:40:54.000Z</time>
      </trkpt>
      <trkpt lat="43.4896" lon="6.23908">
        <ele>119.7</ele>
        <time>2025-10-13T07:41:04.000Z</time>
      </trkpt>
      <trkpt lat="43.4897" lon="6.23906">
        <ele>118.9</ele>
        <time>2025-10-13T07:41:14.000Z</time>
      </trkpt>
      <trkpt lat="43.48979" lon="6.23904">
        <ele>116.5</ele>
        <time>2025-10-13T07:41:24.000Z</time>
      </trkpt>
      <trkpt lat="43.48989" lon="6.23903">
        <ele>117.4</ele>
        <time>2025-10-13T07:41:33.000Z</time>
      </trkpt>
      <trkpt lat="43.48998" lon="6.23901">
        <ele>117.7</ele>
        <time>2025-10-13T07:41:43.000Z</time>
      </trkpt>
      <trkpt lat="43.49008" lon="6.23898">
        <ele>118</ele>
        <time>2025-10-13T07:41:53.000Z</time>
      </trkpt>
      <trkpt lat="43.49017" lon="6.23895">
        <ele>115.2</ele>
        <time>2025-10-13T07:42:02.000Z</time>
      </trkpt>
      <trkpt lat="43.49024" lon="6.23887">
        <ele>123.4</ele>
        <time>2025-10-13T07:42:12.000Z</time>
      </trkpt>
      <trkpt lat="43.49033" lon="6.23883">
        <ele>122.5</ele>
        <time>2025-10-13T07:42:22.000Z</time>
      </trkpt>
      <trkpt lat="43.49042" lon="6.2388">
        <ele>122.1</ele>
        <time>2025-10-13T07:42:32.000Z</time>
      </trkpt>
      <trkpt lat="43.49051" lon="6.23877">
        <ele>122</ele>
        <time>2025-10-13T07:42:43.000Z</time>
      </trkpt>
      <trkpt lat="43.4906" lon="6.23878">
        <ele>121.8</ele>
        <time>2025-10-13T07:42:54.000Z</time>
      </trkpt>
      <trkpt lat="43.4907" lon="6.23878">
        <ele>122.1</ele>
        <time>2025-10-13T07:43:05.000Z</time>
      </trkpt>
      <trkpt lat="43.49079" lon="6.23882">
        <ele>119.8</ele>
        <time>2025-10-13T07:43:12.000Z</time>
      </trkpt>
      <trkpt lat="43.49088" lon="6.23884">
        <ele>118.6</ele>
        <time>2025-10-13T07:43:20.000Z</time>
      </trkpt>
      <trkpt lat="43.49098" lon="6.23887">
        <ele>120.5</ele>
        <time>2025-10-13T07:43:31.000Z</time>
      </trkpt>
      <trkpt lat="43.49107" lon="6.23889">
        <ele>121.7</ele>
        <time>2025-10-13T07:43:40.000Z</time>
      </trkpt>
      <trkpt lat="43.49115" lon="6.23895">
        <ele>121.7</ele>
        <time>2025-10-13T07:43:50.000Z</time>
      </trkpt>
      <trkpt lat="43.49125" lon="6.23898">
        <ele>120.7</ele>
        <time>2025-10-13T07:44:00.000Z</time>
      </trkpt>
      <trkpt lat="43.49134" lon="6.239">
        <ele>121.5</ele>
        <time>2025-10-13T07:44:08.000Z</time>
      </trkpt>
      <trkpt lat="43.49143" lon="6.23901">
        <ele>120.4</ele>
        <time>2025-10-13T07:44:18.000Z</time>
      </trkpt>
      <trkpt lat="43.49153" lon="6.239">
        <ele>120.6</ele>
        <time>2025-10-13T07:44:29.000Z</time>
      </trkpt>
      <trkpt lat="43.49163" lon="6.23898">
        <ele>123</ele>
        <time>2025-10-13T07:44:40.000Z</time>
      </trkpt>
      <trkpt lat="43.49172" lon="6.239">
        <ele>122.7</ele>
        <time>2025-10-13T07:44:51.000Z</time>
      </trkpt>
      <trkpt lat="43.49181" lon="6.23899">
        <ele>124.3</ele>
        <time>2025-10-13T07:45:01.000Z</time>
      </trkpt>
      <trkpt lat="43.4919" lon="6.23893">
        <ele>123.3</ele>
        <time>2025-10-13T07:45:46.000Z</time>
      </trkpt>
      <trkpt lat="43.49194" lon="6.23881">
        <ele>122.7</ele>
        <time>2025-10-13T07:45:57.000Z</time>
      </trkpt>
      <trkpt lat="43.49199" lon="6.23871">
        <ele>120.2</ele>
        <time>2025-10-13T07:46:08.000Z</time>
      </trkpt>
      <trkpt lat="43.49203" lon="6.23858">
        <ele>118.2</ele>
        <time>2025-10-13T07:46:20.000Z</time>
      </trkpt>
      <trkpt lat="43.49207" lon="6.23846">
        <ele>117.3</ele>
        <time>2025-10-13T07:46:33.000Z</time>
      </trkpt>
      <trkpt lat="43.49204" lon="6.23833">
        <ele>126.6</ele>
        <time>2025-10-13T07:46:51.000Z</time>
      </trkpt>
      <trkpt lat="43.49212" lon="6.23829">
        <ele>127.9</ele>
        <time>2025-10-13T07:47:05.000Z</time>
      </trkpt>
      <trkpt lat="43.49222" lon="6.23825">
        <ele>128.3</ele>
        <time>2025-10-13T07:47:15.000Z</time>
      </trkpt>
      <trkpt lat="43.49231" lon="6.23826">
        <ele>118.1</ele>
        <time>2025-10-13T07:47:22.000Z</time>
      </trkpt>
      <trkpt lat="43.4924" lon="6.23828">
        <ele>116.4</ele>
        <time>2025-10-13T07:47:32.000Z</time>
      </trkpt>
      <trkpt lat="43.4925" lon="6.23826">
        <ele>116.4</ele>
        <time>2025-10-13T07:47:42.000Z</time>
      </trkpt>
      <trkpt lat="43.49259" lon="6.23825">
        <ele>117.8</ele>
        <time>2025-10-13T07:47:52.000Z</time>
      </trkpt>
      <trkpt lat="43.49268" lon="6.23823">
        <ele>114.5</ele>
        <time>2025-10-13T07:48:01.000Z</time>
      </trkpt>
      <trkpt lat="43.49277" lon="6.2382">
        <ele>112.4</ele>
        <time>2025-10-13T07:48:13.000Z</time>
      </trkpt>
      <trkpt lat="43.49281" lon="6.2383">
        <ele>110.7</ele>
        <time>2025-10-13T07:48:35.000Z</time>
      </trkpt>
      <trkpt lat="43.49286" lon="6.23841">
        <ele>114.2</ele>
        <time>2025-10-13T07:48:54.000Z</time>
      </trkpt>
      <trkpt lat="43.49288" lon="6.23854">
        <ele>115.6</ele>
        <time>2025-10-13T07:49:03.000Z</time>
      </trkpt>
      <trkpt lat="43.49289" lon="6.23866">
        <ele>116.4</ele>
        <time>2025-10-13T07:49:12.000Z</time>
      </trkpt>
      <trkpt lat="43.49291" lon="6.23879">
        <ele>116.1</ele>
        <time>2025-10-13T07:49:21.000Z</time>
      </trkpt>
      <trkpt lat="43.49293" lon="6.23891">
        <ele>117.6</ele>
        <time>2025-10-13T07:49:31.000Z</time>
      </trkpt>
      <trkpt lat="43.49293" lon="6.23904">
        <ele>123</ele>
        <time>2025-10-13T07:49:42.000Z</time>
      </trkpt>
      <trkpt lat="43.49295" lon="6.23916">
        <ele>123.8</ele>
        <time>2025-10-13T07:50:00.000Z</time>
      </trkpt>
      <trkpt lat="43.49296" lon="6.23929">
        <ele>129.7</ele>
        <time>2025-10-13T07:50:21.000Z</time>
      </trkpt>
      <trkpt lat="43.49289" lon="6.23921">
        <ele>130.7</ele>
        <time>2025-10-13T07:50:46.000Z</time>
      </trkpt>
      <trkpt lat="43.49289" lon="6.23908">
        <ele>131.7</ele>
        <time>2025-10-13T07:52:45.000Z</time>
      </trkpt>
      <trkpt lat="43.49289" lon="6.23921">
        <ele>126.1</ele>
        <time>2025-10-13T07:56:47.000Z</time>
      </trkpt>
      <trkpt lat="43.49295" lon="6.23931">
        <ele>125.6</ele>
        <time>2025-10-13T07:57:09.000Z</time>
      </trkpt>
      <trkpt lat="43.49297" lon="6.23919">
        <ele>126.5</ele>
        <time>2025-10-13T07:58:01.000Z</time>
      </trkpt>
      <trkpt lat="43.49295" lon="6.23906">
        <ele>126.6</ele>
        <time>2025-10-13T07:58:23.000Z</time>
      </trkpt>
      <trkpt lat="43.49298" lon="6.23919">
        <ele>121</ele>
        <time>2025-10-13T07:59:03.000Z</time>
      </trkpt>
      <trkpt lat="43.49296" lon="6.23931">
        <ele>123.7</ele>
        <time>2025-10-13T07:59:17.000Z</time>
      </trkpt>
      <trkpt lat="43.493" lon="6.23942">
        <ele>128.5</ele>
        <time>2025-10-13T07:59:36.000Z</time>
      </trkpt>
      <trkpt lat="43.49304" lon="6.23954">
        <ele>131</ele>
        <time>2025-10-13T07:59:49.000Z</time>
      </trkpt>
      <trkpt lat="43.49309" lon="6.23965">
        <ele>135.9</ele>
        <time>2025-10-13T08:00:07.000Z</time>
      </trkpt>
      <trkpt lat="43.49311" lon="6.23978">
        <ele>137.7</ele>
        <time>2025-10-13T08:00:20.000Z</time>
      </trkpt>
      <trkpt lat="43.49312" lon="6.23991">
        <ele>138.1</ele>
        <time>2025-10-13T08:00:32.000Z</time>
      </trkpt>
      <trkpt lat="43.49309" lon="6.24003">
        <ele>136.4</ele>
        <time>2025-10-13T08:00:45.000Z</time>
      </trkpt>
      <trkpt lat="43.49306" lon="6.24015">
        <ele>134.1</ele>
        <time>2025-10-13T08:00:56.000Z</time>
      </trkpt>
      <trkpt lat="43.49302" lon="6.24026">
        <ele>135.7</ele>
        <time>2025-10-13T08:01:11.000Z</time>
      </trkpt>
      <trkpt lat="43.49296" lon="6.24036">
        <ele>136</ele>
        <time>2025-10-13T08:01:26.000Z</time>
      </trkpt>
      <trkpt lat="43.49291" lon="6.24047">
        <ele>137.6</ele>
        <time>2025-10-13T08:01:42.000Z</time>
      </trkpt>
      <trkpt lat="43.49287" lon="6.24058">
        <ele>136.9</ele>
        <time>2025-10-13T08:02:04.000Z</time>
      </trkpt>
      <trkpt lat="43.49284" lon="6.2407">
        <ele>138.6</ele>
        <time>2025-10-13T08:02:27.000Z</time>
      </trkpt>
      <trkpt lat="43.4928" lon="6.24082">
        <ele>138.7</ele>
        <time>2025-10-13T08:02:48.000Z</time>
      </trkpt>
      <trkpt lat="43.49278" lon="6.24095">
        <ele>137.2</ele>
        <time>2025-10-13T08:02:59.000Z</time>
      </trkpt>
      <trkpt lat="43.49278" lon="6.24107">
        <ele>140.3</ele>
        <time>2025-10-13T08:03:12.000Z</time>
      </trkpt>
      <trkpt lat="43.49277" lon="6.2412">
        <ele>145.8</ele>
        <time>2025-10-13T08:03:32.000Z</time>
      </trkpt>
      <trkpt lat="43.4928" lon="6.24132">
        <ele>146.6</ele>
        <time>2025-10-13T08:03:42.000Z</time>
      </trkpt>
      <trkpt lat="43.49282" lon="6.24144">
        <ele>146.6</ele>
        <time>2025-10-13T08:03:56.000Z</time>
      </trkpt>
      <trkpt lat="43.49276" lon="6.24154">
        <ele>144.5</ele>
        <time>2025-10-13T08:04:10.000Z</time>
      </trkpt>
      <trkpt lat="43.49266" lon="6.24152">
        <ele>147.3</ele>
        <time>2025-10-13T08:04:21.000Z</time>
      </trkpt>
      <trkpt lat="43.49256" lon="6.24155">
        <ele>147.7</ele>
        <time>2025-10-13T08:04:37.000Z</time>
      </trkpt>
      <trkpt lat="43.49253" lon="6.24166">
        <ele>150.6</ele>
        <time>2025-10-13T08:04:54.000Z</time>
      </trkpt>
      <trkpt lat="43.49251" lon="6.24179">
        <ele>151.3</ele>
        <time>2025-10-13T08:05:09.000Z</time>
      </trkpt>
      <trkpt lat="43.49247" lon="6.2419">
        <ele>149.3</ele>
        <time>2025-10-13T08:05:24.000Z</time>
      </trkpt>
      <trkpt lat="43.49242" lon="6.24201">
        <ele>152.4</ele>
        <time>2025-10-13T08:05:39.000Z</time>
      </trkpt>
      <trkpt lat="43.49238" lon="6.24213">
        <ele>157.8</ele>
        <time>2025-10-13T08:05:55.000Z</time>
      </trkpt>
      <trkpt lat="43.49231" lon="6.24221">
        <ele>158.9</ele>
        <time>2025-10-13T08:06:12.000Z</time>
      </trkpt>
      <trkpt lat="43.49225" lon="6.24231">
        <ele>160.7</ele>
        <time>2025-10-13T08:06:31.000Z</time>
      </trkpt>
      <trkpt lat="43.4922" lon="6.24242">
        <ele>160.7</ele>
        <time>2025-10-13T08:06:48.000Z</time>
      </trkpt>
      <trkpt lat="43.4922" lon="6.24255">
        <ele>157.6</ele>
        <time>2025-10-13T08:07:06.000Z</time>
      </trkpt>
      <trkpt lat="43.4922" lon="6.24268">
        <ele>164.6</ele>
        <time>2025-10-13T08:07:20.000Z</time>
      </trkpt>
      <trkpt lat="43.49222" lon="6.2428">
        <ele>165.5</ele>
        <time>2025-10-13T08:07:37.000Z</time>
      </trkpt>
      <trkpt lat="43.49231" lon="6.24277">
        <ele>167.5</ele>
        <time>2025-10-13T08:10:46.000Z</time>
      </trkpt>
      <trkpt lat="43.4924" lon="6.24278">
        <ele>169.8</ele>
        <time>2025-10-13T08:11:12.000Z</time>
      </trkpt>
      <trkpt lat="43.4925" lon="6.24282">
        <ele>167.9</ele>
        <time>2025-10-13T08:11:24.000Z</time>
      </trkpt>
      <trkpt lat="43.49259" lon="6.2428">
        <ele>168.6</ele>
        <time>2025-10-13T08:11:39.000Z</time>
      </trkpt>
      <trkpt lat="43.49268" lon="6.2428">
        <ele>168.6</ele>
        <time>2025-10-13T08:11:49.000Z</time>
      </trkpt>
      <trkpt lat="43.49277" lon="6.24281">
        <ele>169.9</ele>
        <time>2025-10-13T08:12:03.000Z</time>
      </trkpt>
      <trkpt lat="43.49285" lon="6.24289">
        <ele>168.9</ele>
        <time>2025-10-13T08:12:12.000Z</time>
      </trkpt>
      <trkpt lat="43.49291" lon="6.243">
        <ele>166.6</ele>
        <time>2025-10-13T08:12:27.000Z</time>
      </trkpt>
      <trkpt lat="43.49298" lon="6.24308">
        <ele>165.4</ele>
        <time>2025-10-13T08:12:37.000Z</time>
      </trkpt>
      <trkpt lat="43.49304" lon="6.24318">
        <ele>163.7</ele>
        <time>2025-10-13T08:12:47.000Z</time>
      </trkpt>
      <trkpt lat="43.49309" lon="6.24329">
        <ele>160.5</ele>
        <time>2025-10-13T08:12:57.000Z</time>
      </trkpt>
      <trkpt lat="43.49316" lon="6.24338">
        <ele>160.5</ele>
        <time>2025-10-13T08:13:06.000Z</time>
      </trkpt>
      <trkpt lat="43.49322" lon="6.24348">
        <ele>161.8</ele>
        <time>2025-10-13T08:13:16.000Z</time>
      </trkpt>
      <trkpt lat="43.49324" lon="6.24361">
        <ele>163.2</ele>
        <time>2025-10-13T08:13:27.000Z</time>
      </trkpt>
      <trkpt lat="43.49329" lon="6.24372">
        <ele>162</ele>
        <time>2025-10-13T08:13:39.000Z</time>
      </trkpt>
      <trkpt lat="43.4933" lon="6.24384">
        <ele>160.3</ele>
        <time>2025-10-13T08:13:48.000Z</time>
      </trkpt>
      <trkpt lat="43.49333" lon="6.24397">
        <ele>159.5</ele>
        <time>2025-10-13T08:14:00.000Z</time>
      </trkpt>
      <trkpt lat="43.49336" lon="6.24409">
        <ele>160.8</ele>
        <time>2025-10-13T08:14:11.000Z</time>
      </trkpt>
      <trkpt lat="43.49335" lon="6.24422">
        <ele>160.8</ele>
        <time>2025-10-13T08:14:27.000Z</time>
      </trkpt>
      <trkpt lat="43.49338" lon="6.24434">
        <ele>160.6</ele>
        <time>2025-10-13T08:14:39.000Z</time>
      </trkpt>
      <trkpt lat="43.49342" lon="6.24446">
        <ele>162.9</ele>
        <time>2025-10-13T08:14:55.000Z</time>
      </trkpt>
      <trkpt lat="43.49343" lon="6.24459">
        <ele>162.5</ele>
        <time>2025-10-13T08:15:06.000Z</time>
      </trkpt>
      <trkpt lat="43.49345" lon="6.24472">
        <ele>163.1</ele>
        <time>2025-10-13T08:15:26.000Z</time>
      </trkpt>
      <trkpt lat="43.4935" lon="6.24483">
        <ele>165.3</ele>
        <time>2025-10-13T08:15:41.000Z</time>
      </trkpt>
      <trkpt lat="43.49351" lon="6.24496">
        <ele>164.5</ele>
        <time>2025-10-13T08:15:54.000Z</time>
      </trkpt>
      <trkpt lat="43.49353" lon="6.24509">
        <ele>165.1</ele>
        <time>2025-10-13T08:16:08.000Z</time>
      </trkpt>
      <trkpt lat="43.49354" lon="6.24521">
        <ele>161.9</ele>
        <time>2025-10-13T08:16:26.000Z</time>
      </trkpt>
      <trkpt lat="43.49361" lon="6.2453">
        <ele>160.1</ele>
        <time>2025-10-13T08:16:41.000Z</time>
      </trkpt>
      <trkpt lat="43.49362" lon="6.24543">
        <ele>157.3</ele>
        <time>2025-10-13T08:16:54.000Z</time>
      </trkpt>
      <trkpt lat="43.49364" lon="6.24555">
        <ele>155.1</ele>
        <time>2025-10-13T08:17:06.000Z</time>
      </trkpt>
      <trkpt lat="43.49368" lon="6.24567">
        <ele>155.6</ele>
        <time>2025-10-13T08:17:22.000Z</time>
      </trkpt>
      <trkpt lat="43.49372" lon="6.24579">
        <ele>154.2</ele>
        <time>2025-10-13T08:17:35.000Z</time>
      </trkpt>
      <trkpt lat="43.49377" lon="6.2459">
        <ele>155.1</ele>
        <time>2025-10-13T08:17:50.000Z</time>
      </trkpt>
      <trkpt lat="43.49379" lon="6.24603">
        <ele>153.9</ele>
        <time>2025-10-13T08:18:01.000Z</time>
      </trkpt>
      <trkpt lat="43.49382" lon="6.24615">
        <ele>152.5</ele>
        <time>2025-10-13T08:18:15.000Z</time>
      </trkpt>
      <trkpt lat="43.49387" lon="6.24626">
        <ele>151.8</ele>
        <time>2025-10-13T08:18:27.000Z</time>
      </trkpt>
      <trkpt lat="43.49397" lon="6.24623">
        <ele>153.5</ele>
        <time>2025-10-13T08:18:48.000Z</time>
      </trkpt>
      <trkpt lat="43.49405" lon="6.24618">
        <ele>155.1</ele>
        <time>2025-10-13T08:19:04.000Z</time>
      </trkpt>
      <trkpt lat="43.49412" lon="6.24627">
        <ele>154</ele>
        <time>2025-10-13T08:20:50.000Z</time>
      </trkpt>
      <trkpt lat="43.49421" lon="6.24627">
        <ele>157</ele>
        <time>2025-10-13T08:21:20.000Z</time>
      </trkpt>
      <trkpt lat="43.49429" lon="6.24621">
        <ele>156.7</ele>
        <time>2025-10-13T08:21:33.000Z</time>
      </trkpt>
      <trkpt lat="43.49437" lon="6.24614">
        <ele>157.7</ele>
        <time>2025-10-13T08:21:54.000Z</time>
      </trkpt>
      <trkpt lat="43.49444" lon="6.24606">
        <ele>158.1</ele>
        <time>2025-10-13T08:22:06.000Z</time>
      </trkpt>
      <trkpt lat="43.49451" lon="6.24598">
        <ele>157.6</ele>
        <time>2025-10-13T08:22:20.000Z</time>
      </trkpt>
      <trkpt lat="43.49459" lon="6.24589">
        <ele>156</ele>
        <time>2025-10-13T08:22:39.000Z</time>
      </trkpt>
      <trkpt lat="43.49467" lon="6.24583">
        <ele>155.6</ele>
        <time>2025-10-13T08:22:51.000Z</time>
      </trkpt>
      <trkpt lat="43.49474" lon="6.24574">
        <ele>160.6</ele>
        <time>2025-10-13T08:23:03.000Z</time>
      </trkpt>
      <trkpt lat="43.49481" lon="6.24565">
        <ele>162</ele>
        <time>2025-10-13T08:23:14.000Z</time>
      </trkpt>
      <trkpt lat="43.49488" lon="6.24557">
        <ele>164.9</ele>
        <time>2025-10-13T08:23:28.000Z</time>
      </trkpt>
      <trkpt lat="43.49495" lon="6.24549">
        <ele>163.5</ele>
        <time>2025-10-13T08:23:41.000Z</time>
      </trkpt>
      <trkpt lat="43.49503" lon="6.24541">
        <ele>165.1</ele>
        <time>2025-10-13T08:23:53.000Z</time>
      </trkpt>
      <trkpt lat="43.49512" lon="6.24538">
        <ele>168.5</ele>
        <time>2025-10-13T08:24:08.000Z</time>
      </trkpt>
      <trkpt lat="43.49522" lon="6.24538">
        <ele>169.7</ele>
        <time>2025-10-13T08:24:27.000Z</time>
      </trkpt>
      <trkpt lat="43.49531" lon="6.24537">
        <ele>170.7</ele>
        <time>2025-10-13T08:24:38.000Z</time>
      </trkpt>
      <trkpt lat="43.4954" lon="6.24533">
        <ele>170.3</ele>
        <time>2025-10-13T08:24:50.000Z</time>
      </trkpt>
      <trkpt lat="43.4955" lon="6.24531">
        <ele>168.6</ele>
        <time>2025-10-13T08:25:03.000Z</time>
      </trkpt>
      <trkpt lat="43.49559" lon="6.2453">
        <ele>171</ele>
        <time>2025-10-13T08:25:17.000Z</time>
      </trkpt>
      <trkpt lat="43.49568" lon="6.24528">
        <ele>172.2</ele>
        <time>2025-10-13T08:25:29.000Z</time>
      </trkpt>
      <trkpt lat="43.49577" lon="6.24527">
        <ele>170.6</ele>
        <time>2025-10-13T08:25:40.000Z</time>
      </trkpt>
      <trkpt lat="43.49587" lon="6.24525">
        <ele>173.5</ele>
        <time>2025-10-13T08:26:01.000Z</time>
      </trkpt>
      <trkpt lat="43.49595" lon="6.24517">
        <ele>172.5</ele>
        <time>2025-10-13T08:26:20.000Z</time>
      </trkpt>
      <trkpt lat="43.49603" lon="6.24511">
        <ele>170.4</ele>
        <time>2025-10-13T08:26:35.000Z</time>
      </trkpt>
      <trkpt lat="43.49612" lon="6.24505">
        <ele>173.7</ele>
        <time>2025-10-13T08:26:49.000Z</time>
      </trkpt>
      <trkpt lat="43.49619" lon="6.24498">
        <ele>178.1</ele>
        <time>2025-10-13T08:27:04.000Z</time>
      </trkpt>
      <trkpt lat="43.49628" lon="6.24496">
        <ele>176.6</ele>
        <time>2025-10-13T08:27:17.000Z</time>
      </trkpt>
      <trkpt lat="43.49638" lon="6.24495">
        <ele>178.2</ele>
        <time>2025-10-13T08:27:33.000Z</time>
      </trkpt>
      <trkpt lat="43.49647" lon="6.24498">
        <ele>177.7</ele>
        <time>2025-10-13T08:27:47.000Z</time>
      </trkpt>
      <trkpt lat="43.49657" lon="6.24498">
        <ele>177.8</ele>
        <time>2025-10-13T08:28:01.000Z</time>
      </trkpt>
      <trkpt lat="43.49665" lon="6.24492">
        <ele>177</ele>
        <time>2025-10-13T08:28:17.000Z</time>
      </trkpt>
      <trkpt lat="43.49674" lon="6.24497">
        <ele>174.4</ele>
        <time>2025-10-13T08:28:42.000Z</time>
      </trkpt>
      <trkpt lat="43.49683" lon="6.24498">
        <ele>178.3</ele>
        <time>2025-10-13T08:28:51.000Z</time>
      </trkpt>
      <trkpt lat="43.49693" lon="6.24498">
        <ele>179.4</ele>
        <time>2025-10-13T08:29:01.000Z</time>
      </trkpt>
      <trkpt lat="43.49702" lon="6.24499">
        <ele>179.1</ele>
        <time>2025-10-13T08:29:10.000Z</time>
      </trkpt>
      <trkpt lat="43.49711" lon="6.24498">
        <ele>178</ele>
        <time>2025-10-13T08:29:18.000Z</time>
      </trkpt>
      <trkpt lat="43.49719" lon="6.2449">
        <ele>179.9</ele>
        <time>2025-10-13T08:29:26.000Z</time>
      </trkpt>
      <trkpt lat="43.49723" lon="6.24477">
        <ele>183.9</ele>
        <time>2025-10-13T08:29:35.000Z</time>
      </trkpt>
      <trkpt lat="43.49732" lon="6.24474">
        <ele>182.9</ele>
        <time>2025-10-13T08:29:48.000Z</time>
      </trkpt>
      <trkpt lat="43.49742" lon="6.24472">
        <ele>182.6</ele>
        <time>2025-10-13T08:31:10.000Z</time>
      </trkpt>
      <trkpt lat="43.49751" lon="6.24474">
        <ele>181.9</ele>
        <time>2025-10-13T08:31:19.000Z</time>
      </trkpt>
      <trkpt lat="43.49761" lon="6.24471">
        <ele>183.1</ele>
        <time>2025-10-13T08:31:27.000Z</time>
      </trkpt>
      <trkpt lat="43.4977" lon="6.24473">
        <ele>180.7</ele>
        <time>2025-10-13T08:31:36.000Z</time>
      </trkpt>
      <trkpt lat="43.49779" lon="6.24474">
        <ele>183.3</ele>
        <time>2025-10-13T08:31:47.000Z</time>
      </trkpt>
      <trkpt lat="43.49788" lon="6.24468">
        <ele>185</ele>
        <time>2025-10-13T08:31:59.000Z</time>
      </trkpt>
      <trkpt lat="43.49797" lon="6.24468">
        <ele>183.9</ele>
        <time>2025-10-13T08:32:12.000Z</time>
      </trkpt>
      <trkpt lat="43.49806" lon="6.24474">
        <ele>184.3</ele>
        <time>2025-10-13T08:32:25.000Z</time>
      </trkpt>
      <trkpt lat="43.49814" lon="6.2448">
        <ele>184.9</ele>
        <time>2025-10-13T08:32:38.000Z</time>
      </trkpt>
      <trkpt lat="43.49822" lon="6.24487">
        <ele>186.6</ele>
        <time>2025-10-13T08:32:50.000Z</time>
      </trkpt>
      <trkpt lat="43.49831" lon="6.24491">
        <ele>187.5</ele>
        <time>2025-10-13T08:33:11.000Z</time>
      </trkpt>
      <trkpt lat="43.49841" lon="6.24492">
        <ele>187.2</ele>
        <time>2025-10-13T08:33:28.000Z</time>
      </trkpt>
      <trkpt lat="43.4985" lon="6.2449">
        <ele>187.1</ele>
        <time>2025-10-13T08:33:38.000Z</time>
      </trkpt>
      <trkpt lat="43.49856" lon="6.24481">
        <ele>188.5</ele>
        <time>2025-10-13T08:33:49.000Z</time>
      </trkpt>
      <trkpt lat="43.49864" lon="6.24474">
        <ele>187.6</ele>
        <time>2025-10-13T08:34:01.000Z</time>
      </trkpt>
      <trkpt lat="43.49873" lon="6.24478">
        <ele>190.4</ele>
        <time>2025-10-13T08:35:31.000Z</time>
      </trkpt>
      <trkpt lat="43.4988" lon="6.24471">
        <ele>191.2</ele>
        <time>2025-10-13T08:35:46.000Z</time>
      </trkpt>
      <trkpt lat="43.49876" lon="6.2446">
        <ele>192.2</ele>
        <time>2025-10-13T08:36:33.000Z</time>
      </trkpt>
      <trkpt lat="43.49882" lon="6.24469">
        <ele>190.9</ele>
        <time>2025-10-13T08:38:00.000Z</time>
      </trkpt>
      <trkpt lat="43.49891" lon="6.24474">
        <ele>189.1</ele>
        <time>2025-10-13T08:39:47.000Z</time>
      </trkpt>
      <trkpt lat="43.49896" lon="6.24484">
        <ele>188.8</ele>
        <time>2025-10-13T08:39:56.000Z</time>
      </trkpt>
      <trkpt lat="43.49903" lon="6.24491">
        <ele>188.9</ele>
        <time>2025-10-13T08:40:06.000Z</time>
      </trkpt>
      <trkpt lat="43.4991" lon="6.24499">
        <ele>187.9</ele>
        <time>2025-10-13T08:40:15.000Z</time>
      </trkpt>
      <trkpt lat="43.49918" lon="6.24508">
        <ele>187.1</ele>
        <time>2025-10-13T08:40:24.000Z</time>
      </trkpt>
      <trkpt lat="43.49925" lon="6.24517">
        <ele>184.3</ele>
        <time>2025-10-13T08:40:32.000Z</time>
      </trkpt>
      <trkpt lat="43.49931" lon="6.24527">
        <ele>199.2</ele>
        <time>2025-10-13T08:41:39.000Z</time>
      </trkpt>
      <trkpt lat="43.49939" lon="6.24534">
        <ele>197.6</ele>
        <time>2025-10-13T08:41:47.000Z</time>
      </trkpt>
      <trkpt lat="43.49946" lon="6.24542">
        <ele>196</ele>
        <time>2025-10-13T08:41:55.000Z</time>
      </trkpt>
      <trkpt lat="43.49954" lon="6.24551">
        <ele>197</ele>
        <time>2025-10-13T08:42:05.000Z</time>
      </trkpt>
      <trkpt lat="43.49962" lon="6.24558">
        <ele>196.9</ele>
        <time>2025-10-13T08:42:16.000Z</time>
      </trkpt>
      <trkpt lat="43.49972" lon="6.24564">
        <ele>196.8</ele>
        <time>2025-10-13T08:42:25.000Z</time>
      </trkpt>
      <trkpt lat="43.4998" lon="6.24568">
        <ele>193.9</ele>
        <time>2025-10-13T08:42:39.000Z</time>
      </trkpt>
      <trkpt lat="43.4999" lon="6.24569">
        <ele>192.6</ele>
        <time>2025-10-13T08:42:58.000Z</time>
      </trkpt>
      <trkpt lat="43.4999" lon="6.24556">
        <ele>194.9</ele>
        <time>2025-10-13T08:43:10.000Z</time>
      </trkpt>
      <trkpt lat="43.49989" lon="6.24543">
        <ele>195.9</ele>
        <time>2025-10-13T08:43:24.000Z</time>
      </trkpt>
      <trkpt lat="43.49985" lon="6.24532">
        <ele>198.2</ele>
        <time>2025-10-13T08:43:41.000Z</time>
      </trkpt>
      <trkpt lat="43.49986" lon="6.2452">
        <ele>197.4</ele>
        <time>2025-10-13T08:43:48.000Z</time>
      </trkpt>
      <trkpt lat="43.49987" lon="6.24507">
        <ele>195.1</ele>
        <time>2025-10-13T08:44:29.000Z</time>
      </trkpt>
      <trkpt lat="43.49996" lon="6.24503">
        <ele>197.5</ele>
        <time>2025-10-13T08:44:39.000Z</time>
      </trkpt>
      <trkpt lat="43.50005" lon="6.24498">
        <ele>196.1</ele>
        <time>2025-10-13T08:44:49.000Z</time>
      </trkpt>
      <trkpt lat="43.50012" lon="6.2449">
        <ele>197.1</ele>
        <time>2025-10-13T08:44:58.000Z</time>
      </trkpt>
      <trkpt lat="43.50015" lon="6.24478">
        <ele>198</ele>
        <time>2025-10-13T08:45:07.000Z</time>
      </trkpt>
      <trkpt lat="43.50015" lon="6.24465">
        <ele>198</ele>
        <time>2025-10-13T08:45:16.000Z</time>
      </trkpt>
      <trkpt lat="43.50016" lon="6.24452">
        <ele>197.3</ele>
        <time>2025-10-13T08:45:23.000Z</time>
      </trkpt>
      <trkpt lat="43.50017" lon="6.24439">
        <ele>198.2</ele>
        <time>2025-10-13T08:45:31.000Z</time>
      </trkpt>
      <trkpt lat="43.50019" lon="6.24427">
        <ele>194.5</ele>
        <time>2025-10-13T08:45:42.000Z</time>
      </trkpt>
      <trkpt lat="43.50027" lon="6.2442">
        <ele>193.3</ele>
        <time>2025-10-13T08:45:51.000Z</time>
      </trkpt>
      <trkpt lat="43.50031" lon="6.24408">
        <ele>194.5</ele>
        <time>2025-10-13T08:45:59.000Z</time>
      </trkpt>
      <trkpt lat="43.50033" lon="6.24396">
        <ele>194.9</ele>
        <time>2025-10-13T08:46:10.000Z</time>
      </trkpt>
      <trkpt lat="43.50033" lon="6.24383">
        <ele>193.8</ele>
        <time>2025-10-13T08:46:21.000Z</time>
      </trkpt>
      <trkpt lat="43.50034" lon="6.2437">
        <ele>194.5</ele>
        <time>2025-10-13T08:46:32.000Z</time>
      </trkpt>
      <trkpt lat="43.50032" lon="6.24358">
        <ele>195.1</ele>
        <time>2025-10-13T08:46:42.000Z</time>
      </trkpt>
      <trkpt lat="43.50033" lon="6.24345">
        <ele>193.5</ele>
        <time>2025-10-13T08:46:53.000Z</time>
      </trkpt>
      <trkpt lat="43.50033" lon="6.24332">
        <ele>191.6</ele>
        <time>2025-10-13T08:47:07.000Z</time>
      </trkpt>
      <trkpt lat="43.5003" lon="6.2432">
        <ele>188.1</ele>
        <time>2025-10-13T08:47:19.000Z</time>
      </trkpt>
      <trkpt lat="43.50031" lon="6.24306">
        <ele>190.4</ele>
        <time>2025-10-13T08:47:32.000Z</time>
      </trkpt>
      <trkpt lat="43.50031" lon="6.24294">
        <ele>191.1</ele>
        <time>2025-10-13T08:47:42.000Z</time>
      </trkpt>
      <trkpt lat="43.50031" lon="6.2428">
        <ele>188.1</ele>
        <time>2025-10-13T08:47:55.000Z</time>
      </trkpt>
      <trkpt lat="43.50031" lon="6.24267">
        <ele>186.4</ele>
        <time>2025-10-13T08:48:07.000Z</time>
      </trkpt>
      <trkpt lat="43.5003" lon="6.24255">
        <ele>187.6</ele>
        <time>2025-10-13T08:48:17.000Z</time>
      </trkpt>
      <trkpt lat="43.50029" lon="6.24241">
        <ele>186.2</ele>
        <time>2025-10-13T08:48:32.000Z</time>
      </trkpt>
      <trkpt lat="43.50028" lon="6.24228">
        <ele>184.5</ele>
        <time>2025-10-13T08:48:41.000Z</time>
      </trkpt>
      <trkpt lat="43.50029" lon="6.24215">
        <ele>184.6</ele>
        <time>2025-10-13T08:48:52.000Z</time>
      </trkpt>
      <trkpt lat="43.50027" lon="6.24202">
        <ele>182.4</ele>
        <time>2025-10-13T08:49:02.000Z</time>
      </trkpt>
      <trkpt lat="43.50028" lon="6.24189">
        <ele>183.3</ele>
        <time>2025-10-13T08:49:18.000Z</time>
      </trkpt>
      <trkpt lat="43.50027" lon="6.24176">
        <ele>182.2</ele>
        <time>2025-10-13T08:49:30.000Z</time>
      </trkpt>
      <trkpt lat="43.50027" lon="6.24163">
        <ele>181.5</ele>
        <time>2025-10-13T08:49:42.000Z</time>
      </trkpt>
      <trkpt lat="43.50025" lon="6.2415">
        <ele>183.1</ele>
        <time>2025-10-13T08:49:54.000Z</time>
      </trkpt>
      <trkpt lat="43.50022" lon="6.24138">
        <ele>179.4</ele>
        <time>2025-10-13T08:50:09.000Z</time>
      </trkpt>
      <trkpt lat="43.50016" lon="6.24127">
        <ele>179.7</ele>
        <time>2025-10-13T08:50:19.000Z</time>
      </trkpt>
      <trkpt lat="43.50015" lon="6.24114">
        <ele>179</ele>
        <time>2025-10-13T08:50:31.000Z</time>
      </trkpt>
      <trkpt lat="43.50012" lon="6.24102">
        <ele>178.2</ele>
        <time>2025-10-13T08:50:42.000Z</time>
      </trkpt>
      <trkpt lat="43.50009" lon="6.24089">
        <ele>176.7</ele>
        <time>2025-10-13T08:50:52.000Z</time>
      </trkpt>
      <trkpt lat="43.50007" lon="6.24077">
        <ele>174.9</ele>
        <time>2025-10-13T08:51:04.000Z</time>
      </trkpt>
      <trkpt lat="43.50005" lon="6.24064">
        <ele>175</ele>
        <time>2025-10-13T08:51:17.000Z</time>
      </trkpt>
      <trkpt lat="43.50002" lon="6.24053">
        <ele>176.2</ele>
        <time>2025-10-13T08:51:27.000Z</time>
      </trkpt>
      <trkpt lat="43.5" lon="6.24041">
        <ele>177</ele>
        <time>2025-10-13T08:51:37.000Z</time>
      </trkpt>
      <trkpt lat="43.49997" lon="6.24029">
        <ele>176.3</ele>
        <time>2025-10-13T08:51:48.000Z</time>
      </trkpt>
      <trkpt lat="43.49994" lon="6.24016">
        <ele>175.9</ele>
        <time>2025-10-13T08:52:06.000Z</time>
      </trkpt>
      <trkpt lat="43.49993" lon="6.24004">
        <ele>175.9</ele>
        <time>2025-10-13T08:52:36.000Z</time>
      </trkpt>
      <trkpt lat="43.50002" lon="6.23999">
        <ele>174.7</ele>
        <time>2025-10-13T08:52:49.000Z</time>
      </trkpt>
      <trkpt lat="43.5001" lon="6.23996">
        <ele>173.6</ele>
        <time>2025-10-13T08:53:02.000Z</time>
      </trkpt>
      <trkpt lat="43.5002" lon="6.23996">
        <ele>173.2</ele>
        <time>2025-10-13T08:53:19.000Z</time>
      </trkpt>
      <trkpt lat="43.50029" lon="6.23995">
        <ele>176.2</ele>
        <time>2025-10-13T08:54:54.000Z</time>
      </trkpt>
      <trkpt lat="43.50038" lon="6.23994">
        <ele>173</ele>
        <time>2025-10-13T08:56:25.000Z</time>
      </trkpt>
      <trkpt lat="43.50046" lon="6.24">
        <ele>174.6</ele>
        <time>2025-10-13T08:56:39.000Z</time>
      </trkpt>
      <trkpt lat="43.50053" lon="6.24008">
        <ele>176.9</ele>
        <time>2025-10-13T08:56:49.000Z</time>
      </trkpt>
      <trkpt lat="43.50062" lon="6.24014">
        <ele>178.1</ele>
        <time>2025-10-13T08:57:09.000Z</time>
      </trkpt>
      <trkpt lat="43.5007" lon="6.2402">
        <ele>180.4</ele>
        <time>2025-10-13T08:57:21.000Z</time>
      </trkpt>
      <trkpt lat="43.50077" lon="6.24027">
        <ele>180.8</ele>
        <time>2025-10-13T08:57:30.000Z</time>
      </trkpt>
      <trkpt lat="43.50085" lon="6.24035">
        <ele>181.4</ele>
        <time>2025-10-13T08:57:41.000Z</time>
      </trkpt>
      <trkpt lat="43.50092" lon="6.24043">
        <ele>182.6</ele>
        <time>2025-10-13T08:57:53.000Z</time>
      </trkpt>
      <trkpt lat="43.501" lon="6.2405">
        <ele>184.2</ele>
        <time>2025-10-13T08:58:05.000Z</time>
      </trkpt>
      <trkpt lat="43.50109" lon="6.24057">
        <ele>186.2</ele>
        <time>2025-10-13T08:58:20.000Z</time>
      </trkpt>
      <trkpt lat="43.50116" lon="6.24063">
        <ele>187.3</ele>
        <time>2025-10-13T08:58:31.000Z</time>
      </trkpt>
      <trkpt lat="43.50123" lon="6.24071">
        <ele>188</ele>
        <time>2025-10-13T08:58:54.000Z</time>
      </trkpt>
      <trkpt lat="43.50131" lon="6.24079">
        <ele>188.1</ele>
        <time>2025-10-13T08:59:05.000Z</time>
      </trkpt>
      <trkpt lat="43.50139" lon="6.24086">
        <ele>190.5</ele>
        <time>2025-10-13T08:59:22.000Z</time>
      </trkpt>
      <trkpt lat="43.50148" lon="6.24087">
        <ele>191.7</ele>
        <time>2025-10-13T08:59:39.000Z</time>
      </trkpt>
      <trkpt lat="43.50158" lon="6.24089">
        <ele>193.9</ele>
        <time>2025-10-13T08:59:49.000Z</time>
      </trkpt>
      <trkpt lat="43.50167" lon="6.2409">
        <ele>197.2</ele>
        <time>2025-10-13T09:00:03.000Z</time>
      </trkpt>
      <trkpt lat="43.50176" lon="6.24093">
        <ele>200.8</ele>
        <time>2025-10-13T09:00:20.000Z</time>
      </trkpt>
      <trkpt lat="43.50184" lon="6.24099">
        <ele>200.1</ele>
        <time>2025-10-13T09:00:39.000Z</time>
      </trkpt>
      <trkpt lat="43.50193" lon="6.24104">
        <ele>204.1</ele>
        <time>2025-10-13T09:01:18.000Z</time>
      </trkpt>
      <trkpt lat="43.50201" lon="6.24109">
        <ele>205.7</ele>
        <time>2025-10-13T09:03:11.000Z</time>
      </trkpt>
      <trkpt lat="43.50208" lon="6.24119">
        <ele>204.6</ele>
        <time>2025-10-13T09:03:25.000Z</time>
      </trkpt>
      <trkpt lat="43.50214" lon="6.24128">
        <ele>205.1</ele>
        <time>2025-10-13T09:03:37.000Z</time>
      </trkpt>
      <trkpt lat="43.50221" lon="6.24136">
        <ele>204.6</ele>
        <time>2025-10-13T09:03:52.000Z</time>
      </trkpt>
      <trkpt lat="43.50229" lon="6.24143">
        <ele>202.1</ele>
        <time>2025-10-13T09:04:07.000Z</time>
      </trkpt>
      <trkpt lat="43.50238" lon="6.24148">
        <ele>201.5</ele>
        <time>2025-10-13T09:04:15.000Z</time>
      </trkpt>
      <trkpt lat="43.50244" lon="6.24157">
        <ele>202.2</ele>
        <time>2025-10-13T09:04:26.000Z</time>
      </trkpt>
      <trkpt lat="43.50247" lon="6.2417">
        <ele>203.2</ele>
        <time>2025-10-13T09:04:39.000Z</time>
      </trkpt>
      <trkpt lat="43.50252" lon="6.24181">
        <ele>203.1</ele>
        <time>2025-10-13T09:04:52.000Z</time>
      </trkpt>
      <trkpt lat="43.50253" lon="6.24193">
        <ele>206.8</ele>
        <time>2025-10-13T09:05:09.000Z</time>
      </trkpt>
      <trkpt lat="43.50256" lon="6.24206">
        <ele>207.9</ele>
        <time>2025-10-13T09:05:24.000Z</time>
      </trkpt>
      <trkpt lat="43.50251" lon="6.24218">
        <ele>207</ele>
        <time>2025-10-13T09:05:35.000Z</time>
      </trkpt>
      <trkpt lat="43.5026" lon="6.24222">
        <ele>209.2</ele>
        <time>2025-10-13T09:06:26.000Z</time>
      </trkpt>
      <trkpt lat="43.50264" lon="6.24234">
        <ele>208.1</ele>
        <time>2025-10-13T09:06:36.000Z</time>
      </trkpt>
      <trkpt lat="43.50269" lon="6.24245">
        <ele>208.9</ele>
        <time>2025-10-13T09:06:47.000Z</time>
      </trkpt>
      <trkpt lat="43.50274" lon="6.24257">
        <ele>209.2</ele>
        <time>2025-10-13T09:06:58.000Z</time>
      </trkpt>
      <trkpt lat="43.50278" lon="6.24269">
        <ele>207</ele>
        <time>2025-10-13T09:07:09.000Z</time>
      </trkpt>
      <trkpt lat="43.50284" lon="6.24278">
        <ele>207.2</ele>
        <time>2025-10-13T09:07:26.000Z</time>
      </trkpt>
      <trkpt lat="43.50288" lon="6.24289">
        <ele>207.9</ele>
        <time>2025-10-13T09:07:39.000Z</time>
      </trkpt>
      <trkpt lat="43.50293" lon="6.24302">
        <ele>209.2</ele>
        <time>2025-10-13T09:07:49.000Z</time>
      </trkpt>
      <trkpt lat="43.50296" lon="6.24314">
        <ele>209.3</ele>
        <time>2025-10-13T09:07:59.000Z</time>
      </trkpt>
      <trkpt lat="43.50299" lon="6.24326">
        <ele>208.9</ele>
        <time>2025-10-13T09:08:10.000Z</time>
      </trkpt>
      <trkpt lat="43.50304" lon="6.24336">
        <ele>207.9</ele>
        <time>2025-10-13T09:08:30.000Z</time>
      </trkpt>
      <trkpt lat="43.5031" lon="6.24346">
        <ele>208.3</ele>
        <time>2025-10-13T09:08:44.000Z</time>
      </trkpt>
      <trkpt lat="43.50316" lon="6.24356">
        <ele>205.4</ele>
        <time>2025-10-13T09:09:00.000Z</time>
      </trkpt>
      <trkpt lat="43.50321" lon="6.24367">
        <ele>203.9</ele>
        <time>2025-10-13T09:09:28.000Z</time>
      </trkpt>
      <trkpt lat="43.50327" lon="6.24376">
        <ele>200.4</ele>
        <time>2025-10-13T09:09:50.000Z</time>
      </trkpt>
      <trkpt lat="43.50332" lon="6.24388">
        <ele>194.8</ele>
        <time>2025-10-13T09:10:03.000Z</time>
      </trkpt>
      <trkpt lat="43.50337" lon="6.24398">
        <ele>192.4</ele>
        <time>2025-10-13T09:10:15.000Z</time>
      </trkpt>
      <trkpt lat="43.50345" lon="6.24406">
        <ele>194.3</ele>
        <time>2025-10-13T09:10:30.000Z</time>
      </trkpt>
      <trkpt lat="43.50352" lon="6.24414">
        <ele>196.7</ele>
        <time>2025-10-13T09:10:49.000Z</time>
      </trkpt>
      <trkpt lat="43.50361" lon="6.24416">
        <ele>199.3</ele>
        <time>2025-10-13T09:11:40.000Z</time>
      </trkpt>
      <trkpt lat="43.50368" lon="6.24425">
        <ele>186.2</ele>
        <time>2025-10-13T09:12:25.000Z</time>
      </trkpt>
      <trkpt lat="43.50376" lon="6.2443">
        <ele>185.4</ele>
        <time>2025-10-13T09:12:34.000Z</time>
      </trkpt>
      <trkpt lat="43.50385" lon="6.24436">
        <ele>187</ele>
        <time>2025-10-13T09:12:45.000Z</time>
      </trkpt>
      <trkpt lat="43.50394" lon="6.2444">
        <ele>186.9</ele>
        <time>2025-10-13T09:12:55.000Z</time>
      </trkpt>
      <trkpt lat="43.50404" lon="6.2444">
        <ele>188</ele>
        <time>2025-10-13T09:13:04.000Z</time>
      </trkpt>
      <trkpt lat="43.50413" lon="6.24437">
        <ele>189.3</ele>
        <time>2025-10-13T09:13:15.000Z</time>
      </trkpt>
      <trkpt lat="43.50422" lon="6.24438">
        <ele>187.8</ele>
        <time>2025-10-13T09:13:31.000Z</time>
      </trkpt>
      <trkpt lat="43.50432" lon="6.24437">
        <ele>186.5</ele>
        <time>2025-10-13T09:13:50.000Z</time>
      </trkpt>
      <trkpt lat="43.50441" lon="6.24437">
        <ele>186.9</ele>
        <time>2025-10-13T09:14:00.000Z</time>
      </trkpt>
      <trkpt lat="43.50451" lon="6.24436">
        <ele>191.8</ele>
        <time>2025-10-13T09:14:11.000Z</time>
      </trkpt>
      <trkpt lat="43.5046" lon="6.24437">
        <ele>198.1</ele>
        <time>2025-10-13T09:14:23.000Z</time>
      </trkpt>
      <trkpt lat="43.50467" lon="6.24445">
        <ele>201</ele>
        <time>2025-10-13T09:14:33.000Z</time>
      </trkpt>
      <trkpt lat="43.50473" lon="6.24456">
        <ele>201.1</ele>
        <time>2025-10-13T09:14:44.000Z</time>
      </trkpt>
      <trkpt lat="43.50481" lon="6.24463">
        <ele>200</ele>
        <time>2025-10-13T09:14:56.000Z</time>
      </trkpt>
      <trkpt lat="43.5049" lon="6.24467">
        <ele>195.6</ele>
        <time>2025-10-13T09:15:10.000Z</time>
      </trkpt>
      <trkpt lat="43.505" lon="6.24468">
        <ele>190.7</ele>
        <time>2025-10-13T09:15:28.000Z</time>
      </trkpt>
      <trkpt lat="43.50508" lon="6.24475">
        <ele>190.4</ele>
        <time>2025-10-13T09:15:39.000Z</time>
      </trkpt>
      <trkpt lat="43.50513" lon="6.24485">
        <ele>190.9</ele>
        <time>2025-10-13T09:15:59.000Z</time>
      </trkpt>
      <trkpt lat="43.50522" lon="6.24492">
        <ele>192.4</ele>
        <time>2025-10-13T09:16:23.000Z</time>
      </trkpt>
      <trkpt lat="43.50531" lon="6.24497">
        <ele>192.8</ele>
        <time>2025-10-13T09:16:33.000Z</time>
      </trkpt>
      <trkpt lat="43.50538" lon="6.24505">
        <ele>191.4</ele>
        <time>2025-10-13T09:16:45.000Z</time>
      </trkpt>
      <trkpt lat="43.50548" lon="6.24508">
        <ele>190.6</ele>
        <time>2025-10-13T09:16:57.000Z</time>
      </trkpt>
      <trkpt lat="43.50557" lon="6.24505">
        <ele>192.2</ele>
        <time>2025-10-13T09:17:10.000Z</time>
      </trkpt>
      <trkpt lat="43.50566" lon="6.24508">
        <ele>190.3</ele>
        <time>2025-10-13T09:17:24.000Z</time>
      </trkpt>
      <trkpt lat="43.50575" lon="6.24512">
        <ele>187.1</ele>
        <time>2025-10-13T09:17:37.000Z</time>
      </trkpt>
      <trkpt lat="43.50584" lon="6.24516">
        <ele>183.7</ele>
        <time>2025-10-13T09:17:52.000Z</time>
      </trkpt>
      <trkpt lat="43.50594" lon="6.24517">
        <ele>180.1</ele>
        <time>2025-10-13T09:18:04.000Z</time>
      </trkpt>
      <trkpt lat="43.50603" lon="6.24519">
        <ele>179.3</ele>
        <time>2025-10-13T09:18:17.000Z</time>
      </trkpt>
      <trkpt lat="43.50612" lon="6.24522">
        <ele>177.5</ele>
        <time>2025-10-13T09:18:33.000Z</time>
      </trkpt>
      <trkpt lat="43.50622" lon="6.24521">
        <ele>175.1</ele>
        <time>2025-10-13T09:18:42.000Z</time>
      </trkpt>
      <trkpt lat="43.50631" lon="6.24522">
        <ele>175.8</ele>
        <time>2025-10-13T09:18:58.000Z</time>
      </trkpt>
      <trkpt lat="43.50641" lon="6.24521">
        <ele>171.3</ele>
        <time>2025-10-13T09:19:13.000Z</time>
      </trkpt>
      <trkpt lat="43.5065" lon="6.24518">
        <ele>168.2</ele>
        <time>2025-10-13T09:19:26.000Z</time>
      </trkpt>
      <trkpt lat="43.50659" lon="6.24516">
        <ele>169</ele>
        <time>2025-10-13T09:19:38.000Z</time>
      </trkpt>
      <trkpt lat="43.50665" lon="6.24506">
        <ele>165.3</ele>
        <time>2025-10-13T09:19:55.000Z</time>
      </trkpt>
      <trkpt lat="43.50674" lon="6.24508">
        <ele>163.4</ele>
        <time>2025-10-13T09:20:20.000Z</time>
      </trkpt>
      <trkpt lat="43.50681" lon="6.24515">
        <ele>160.4</ele>
        <time>2025-10-13T09:20:33.000Z</time>
      </trkpt>
      <trkpt lat="43.50689" lon="6.24524">
        <ele>163.3</ele>
        <time>2025-10-13T09:20:47.000Z</time>
      </trkpt>
      <trkpt lat="43.50693" lon="6.24535">
        <ele>158.4</ele>
        <time>2025-10-13T09:21:14.000Z</time>
      </trkpt>
      <trkpt lat="43.50702" lon="6.24533">
        <ele>170.3</ele>
        <time>2025-10-13T09:22:35.000Z</time>
      </trkpt>
      <trkpt lat="43.50712" lon="6.24533">
        <ele>167.5</ele>
        <time>2025-10-13T09:24:12.000Z</time>
      </trkpt>
      <trkpt lat="43.50721" lon="6.24529">
        <ele>168.7</ele>
        <time>2025-10-13T09:24:23.000Z</time>
      </trkpt>
      <trkpt lat="43.50727" lon="6.24519">
        <ele>163.8</ele>
        <time>2025-10-13T09:24:35.000Z</time>
      </trkpt>
      <trkpt lat="43.50731" lon="6.24507">
        <ele>167.1</ele>
        <time>2025-10-13T09:24:47.000Z</time>
      </trkpt>
      <trkpt lat="43.50737" lon="6.24497">
        <ele>162.7</ele>
        <time>2025-10-13T09:25:13.000Z</time>
      </trkpt>
      <trkpt lat="43.50745" lon="6.24489">
        <ele>166.2</ele>
        <time>2025-10-13T09:25:20.000Z</time>
      </trkpt>
      <trkpt lat="43.50753" lon="6.24483">
        <ele>169.5</ele>
        <time>2025-10-13T09:25:42.000Z</time>
      </trkpt>
      <trkpt lat="43.5076" lon="6.24474">
        <ele>165.3</ele>
        <time>2025-10-13T09:25:50.000Z</time>
      </trkpt>
      <trkpt lat="43.50768" lon="6.24467">
        <ele>157.3</ele>
        <time>2025-10-13T09:26:00.000Z</time>
      </trkpt>
      <trkpt lat="43.50777" lon="6.24461">
        <ele>158.4</ele>
        <time>2025-10-13T09:26:10.000Z</time>
      </trkpt>
      <trkpt lat="43.50785" lon="6.24454">
        <ele>158.1</ele>
        <time>2025-10-13T09:26:19.000Z</time>
      </trkpt>
      <trkpt lat="43.50794" lon="6.24448">
        <ele>160.7</ele>
        <time>2025-10-13T09:26:28.000Z</time>
      </trkpt>
      <trkpt lat="43.50803" lon="6.24445">
        <ele>163.6</ele>
        <time>2025-10-13T09:26:37.000Z</time>
      </trkpt>
      <trkpt lat="43.50813" lon="6.24445">
        <ele>158.9</ele>
        <time>2025-10-13T09:27:06.000Z</time>
      </trkpt>
      <trkpt lat="43.50822" lon="6.24449">
        <ele>159.1</ele>
        <time>2025-10-13T09:27:15.000Z</time>
      </trkpt>
      <trkpt lat="43.50831" lon="6.24453">
        <ele>159.4</ele>
        <time>2025-10-13T09:27:23.000Z</time>
      </trkpt>
      <trkpt lat="43.50841" lon="6.24456">
        <ele>160.1</ele>
        <time>2025-10-13T09:27:33.000Z</time>
      </trkpt>
      <trkpt lat="43.50849" lon="6.24449">
        <ele>158.6</ele>
        <time>2025-10-13T09:27:43.000Z</time>
      </trkpt>
      <trkpt lat="43.50857" lon="6.24441">
        <ele>157</ele>
        <time>2025-10-13T09:27:52.000Z</time>
      </trkpt>
      <trkpt lat="43.50864" lon="6.24432">
        <ele>154.6</ele>
        <time>2025-10-13T09:28:01.000Z</time>
      </trkpt>
      <trkpt lat="43.5087" lon="6.24422">
        <ele>153.9</ele>
        <time>2025-10-13T09:28:09.000Z</time>
      </trkpt>
      <trkpt lat="43.50877" lon="6.24413">
        <ele>153.2</ele>
        <time>2025-10-13T09:28:18.000Z</time>
      </trkpt>
      <trkpt lat="43.50885" lon="6.24404">
        <ele>151.1</ele>
        <time>2025-10-13T09:28:27.000Z</time>
      </trkpt>
      <trkpt lat="43.50892" lon="6.24396">
        <ele>150.1</ele>
        <time>2025-10-13T09:28:34.000Z</time>
      </trkpt>
      <trkpt lat="43.509" lon="6.24387">
        <ele>148.8</ele>
        <time>2025-10-13T09:28:43.000Z</time>
      </trkpt>
      <trkpt lat="43.50907" lon="6.24379">
        <ele>149.7</ele>
        <time>2025-10-13T09:28:57.000Z</time>
      </trkpt>
      <trkpt lat="43.5091" lon="6.24367">
        <ele>149.5</ele>
        <time>2025-10-13T09:29:47.000Z</time>
      </trkpt>
      <trkpt lat="43.50912" lon="6.24354">
        <ele>148.1</ele>
        <time>2025-10-13T09:30:08.000Z</time>
      </trkpt>
      <trkpt lat="43.50919" lon="6.24344">
        <ele>146.2</ele>
        <time>2025-10-13T09:30:18.000Z</time>
      </trkpt>
      <trkpt lat="43.50923" lon="6.24332">
        <ele>145</ele>
        <time>2025-10-13T09:30:30.000Z</time>
      </trkpt>
      <trkpt lat="43.50925" lon="6.2432">
        <ele>144.5</ele>
        <time>2025-10-13T09:30:41.000Z</time>
      </trkpt>
      <trkpt lat="43.50927" lon="6.24307">
        <ele>145.2</ele>
        <time>2025-10-13T09:30:51.000Z</time>
      </trkpt>
      <trkpt lat="43.50926" lon="6.24295">
        <ele>146.5</ele>
        <time>2025-10-13T09:31:00.000Z</time>
      </trkpt>
      <trkpt lat="43.50924" lon="6.24282">
        <ele>143.9</ele>
        <time>2025-10-13T09:31:09.000Z</time>
      </trkpt>
      <trkpt lat="43.50924" lon="6.24269">
        <ele>148.6</ele>
        <time>2025-10-13T09:31:29.000Z</time>
      </trkpt>
      <trkpt lat="43.50918" lon="6.24258">
        <ele>147.4</ele>
        <time>2025-10-13T09:31:53.000Z</time>
      </trkpt>
      <trkpt lat="43.5091" lon="6.24248">
        <ele>146.8</ele>
        <time>2025-10-13T09:32:11.000Z</time>
      </trkpt>
      <trkpt lat="43.50906" lon="6.24237">
        <ele>145.4</ele>
        <time>2025-10-13T09:32:20.000Z</time>
      </trkpt>
      <trkpt lat="43.50903" lon="6.24225">
        <ele>143.6</ele>
        <time>2025-10-13T09:32:28.000Z</time>
      </trkpt>
      <trkpt lat="43.509" lon="6.24211">
        <ele>144.1</ele>
        <time>2025-10-13T09:32:35.000Z</time>
      </trkpt>
      <trkpt lat="43.50902" lon="6.24198">
        <ele>138.9</ele>
        <time>2025-10-13T09:32:45.000Z</time>
      </trkpt>
      <trkpt lat="43.50904" lon="6.24185">
        <ele>140.6</ele>
        <time>2025-10-13T09:32:53.000Z</time>
      </trkpt>
      <trkpt lat="43.50908" lon="6.24172">
        <ele>140.1</ele>
        <time>2025-10-13T09:33:02.000Z</time>
      </trkpt>
      <trkpt lat="43.50911" lon="6.24159">
        <ele>139.5</ele>
        <time>2025-10-13T09:33:11.000Z</time>
      </trkpt>
      <trkpt lat="43.5091" lon="6.24145">
        <ele>140.9</ele>
        <time>2025-10-13T09:33:24.000Z</time>
      </trkpt>
      <trkpt lat="43.50908" lon="6.24132">
        <ele>141.9</ele>
        <time>2025-10-13T09:33:33.000Z</time>
      </trkpt>
      <trkpt lat="43.50905" lon="6.2412">
        <ele>145.9</ele>
        <time>2025-10-13T09:33:40.000Z</time>
      </trkpt>
      <trkpt lat="43.50901" lon="6.24108">
        <ele>150.2</ele>
        <time>2025-10-13T09:33:49.000Z</time>
      </trkpt>
      <trkpt lat="43.509" lon="6.24095">
        <ele>146.4</ele>
        <time>2025-10-13T09:34:11.000Z</time>
      </trkpt>
      <trkpt lat="43.50904" lon="6.24082">
        <ele>145.4</ele>
        <time>2025-10-13T09:35:04.000Z</time>
      </trkpt>
      <trkpt lat="43.50905" lon="6.24069">
        <ele>144.1</ele>
        <time>2025-10-13T09:35:15.000Z</time>
      </trkpt>
      <trkpt lat="43.50909" lon="6.24057">
        <ele>144.2</ele>
        <time>2025-10-13T09:35:25.000Z</time>
      </trkpt>
      <trkpt lat="43.50912" lon="6.24045">
        <ele>144.6</ele>
        <time>2025-10-13T09:35:36.000Z</time>
      </trkpt>
      <trkpt lat="43.50914" lon="6.24032">
        <ele>144.8</ele>
        <time>2025-10-13T09:35:46.000Z</time>
      </trkpt>
      <trkpt lat="43.50918" lon="6.2402">
        <ele>146</ele>
        <time>2025-10-13T09:36:40.000Z</time>
      </trkpt>
      <trkpt lat="43.50925" lon="6.24013">
        <ele>146.9</ele>
        <time>2025-10-13T09:36:49.000Z</time>
      </trkpt>
      <trkpt lat="43.50932" lon="6.24005">
        <ele>146</ele>
        <time>2025-10-13T09:37:02.000Z</time>
      </trkpt>
      <trkpt lat="43.50939" lon="6.23997">
        <ele>148.5</ele>
        <time>2025-10-13T09:37:13.000Z</time>
      </trkpt>
      <trkpt lat="43.50946" lon="6.23987">
        <ele>149.3</ele>
        <time>2025-10-13T09:37:21.000Z</time>
      </trkpt>
      <trkpt lat="43.50954" lon="6.23982">
        <ele>152.7</ele>
        <time>2025-10-13T09:37:28.000Z</time>
      </trkpt>
      <trkpt lat="43.50963" lon="6.23978">
        <ele>152.6</ele>
        <time>2025-10-13T09:37:36.000Z</time>
      </trkpt>
      <trkpt lat="43.50973" lon="6.23976">
        <ele>147.2</ele>
        <time>2025-10-13T09:37:47.000Z</time>
      </trkpt>
      <trkpt lat="43.50982" lon="6.23974">
        <ele>146.4</ele>
        <time>2025-10-13T09:37:58.000Z</time>
      </trkpt>
      <trkpt lat="43.5099" lon="6.23967">
        <ele>145.1</ele>
        <time>2025-10-13T09:38:08.000Z</time>
      </trkpt>
      <trkpt lat="43.50993" lon="6.23954">
        <ele>145.8</ele>
        <time>2025-10-13T09:38:18.000Z</time>
      </trkpt>
      <trkpt lat="43.50992" lon="6.23942">
        <ele>147</ele>
        <time>2025-10-13T09:38:28.000Z</time>
      </trkpt>
      <trkpt lat="43.50991" lon="6.23929">
        <ele>147.3</ele>
        <time>2025-10-13T09:38:38.000Z</time>
      </trkpt>
      <trkpt lat="43.5099" lon="6.23916">
        <ele>146.7</ele>
        <time>2025-10-13T09:38:49.000Z</time>
      </trkpt>
      <trkpt lat="43.50989" lon="6.23904">
        <ele>147</ele>
        <time>2025-10-13T09:38:58.000Z</time>
      </trkpt>
      <trkpt lat="43.50989" lon="6.2389">
        <ele>147.7</ele>
        <time>2025-10-13T09:39:12.000Z</time>
      </trkpt>
      <trkpt lat="43.50986" lon="6.23878">
        <ele>146.3</ele>
        <time>2025-10-13T09:39:31.000Z</time>
      </trkpt>
      <trkpt lat="43.50983" lon="6.23865">
        <ele>146.9</ele>
        <time>2025-10-13T09:39:40.000Z</time>
      </trkpt>
      <trkpt lat="43.5098" lon="6.23853">
        <ele>145.8</ele>
        <time>2025-10-13T09:39:50.000Z</time>
      </trkpt>
      <trkpt lat="43.50976" lon="6.2384">
        <ele>144.5</ele>
        <time>2025-10-13T09:40:01.000Z</time>
      </trkpt>
      <trkpt lat="43.50972" lon="6.23828">
        <ele>143.4</ele>
        <time>2025-10-13T09:40:11.000Z</time>
      </trkpt>
      <trkpt lat="43.5097" lon="6.23815">
        <ele>144.5</ele>
        <time>2025-10-13T09:40:31.000Z</time>
      </trkpt>
      <trkpt lat="43.50969" lon="6.23802">
        <ele>143.8</ele>
        <time>2025-10-13T09:40:42.000Z</time>
      </trkpt>
      <trkpt lat="43.50969" lon="6.23789">
        <ele>142.9</ele>
        <time>2025-10-13T09:41:42.000Z</time>
      </trkpt>
      <trkpt lat="43.50971" lon="6.23777">
        <ele>141.5</ele>
        <time>2025-10-13T09:41:51.000Z</time>
      </trkpt>
      <trkpt lat="43.50975" lon="6.23766">
        <ele>140.9</ele>
        <time>2025-10-13T09:42:01.000Z</time>
      </trkpt>
      <trkpt lat="43.5098" lon="6.23755">
        <ele>142.4</ele>
        <time>2025-10-13T09:42:11.000Z</time>
      </trkpt>
      <trkpt lat="43.50984" lon="6.23743">
        <ele>144.8</ele>
        <time>2025-10-13T09:42:26.000Z</time>
      </trkpt>
      <trkpt lat="43.50987" lon="6.23731">
        <ele>148.2</ele>
        <time>2025-10-13T09:42:34.000Z</time>
      </trkpt>
      <trkpt lat="43.50989" lon="6.23719">
        <ele>144</ele>
        <time>2025-10-13T09:42:43.000Z</time>
      </trkpt>
      <trkpt lat="43.50985" lon="6.23707">
        <ele>143.7</ele>
        <time>2025-10-13T09:42:56.000Z</time>
      </trkpt>
      <trkpt lat="43.50983" lon="6.23693">
        <ele>145.5</ele>
        <time>2025-10-13T09:43:08.000Z</time>
      </trkpt>
      <trkpt lat="43.50983" lon="6.23679">
        <ele>145.1</ele>
        <time>2025-10-13T09:43:17.000Z</time>
      </trkpt>
      <trkpt lat="43.50981" lon="6.23666">
        <ele>140.6</ele>
        <time>2025-10-13T09:43:25.000Z</time>
      </trkpt>
      <trkpt lat="43.50987" lon="6.23657">
        <ele>141.3</ele>
        <time>2025-10-13T09:44:16.000Z</time>
      </trkpt>
      <trkpt lat="43.5099" lon="6.23645">
        <ele>140.1</ele>
        <time>2025-10-13T09:44:26.000Z</time>
      </trkpt>
      <trkpt lat="43.50994" lon="6.23633">
        <ele>141.6</ele>
        <time>2025-10-13T09:44:40.000Z</time>
      </trkpt>
      <trkpt lat="43.50997" lon="6.23621">
        <ele>142.7</ele>
        <time>2025-10-13T09:44:51.000Z</time>
      </trkpt>
      <trkpt lat="43.50995" lon="6.23608">
        <ele>141.7</ele>
        <time>2025-10-13T09:45:00.000Z</time>
      </trkpt>
      <trkpt lat="43.50987" lon="6.23601">
        <ele>135.1</ele>
        <time>2025-10-13T09:45:09.000Z</time>
      </trkpt>
      <trkpt lat="43.50978" lon="6.23596">
        <ele>132.6</ele>
        <time>2025-10-13T09:45:17.000Z</time>
      </trkpt>
      <trkpt lat="43.50968" lon="6.23593">
        <ele>130.9</ele>
        <time>2025-10-13T09:45:27.000Z</time>
      </trkpt>
      <trkpt lat="43.50959" lon="6.23593">
        <ele>127.1</ele>
        <time>2025-10-13T09:45:36.000Z</time>
      </trkpt>
      <trkpt lat="43.5095" lon="6.23591">
        <ele>129.7</ele>
        <time>2025-10-13T09:45:47.000Z</time>
      </trkpt>
      <trkpt lat="43.5094" lon="6.23591">
        <ele>125.7</ele>
        <time>2025-10-13T09:45:56.000Z</time>
      </trkpt>
      <trkpt lat="43.50931" lon="6.23591">
        <ele>127.3</ele>
        <time>2025-10-13T09:46:04.000Z</time>
      </trkpt>
      <trkpt lat="43.5092" lon="6.23588">
        <ele>131.7</ele>
        <time>2025-10-13T09:46:12.000Z</time>
      </trkpt>
      <trkpt lat="43.50911" lon="6.23584">
        <ele>131.8</ele>
        <time>2025-10-13T09:46:19.000Z</time>
      </trkpt>
      <trkpt lat="43.50902" lon="6.23585">
        <ele>134.3</ele>
        <time>2025-10-13T09:46:27.000Z</time>
      </trkpt>
      <trkpt lat="43.50892" lon="6.23587">
        <ele>135.1</ele>
        <time>2025-10-13T09:46:35.000Z</time>
      </trkpt>
      <trkpt lat="43.50882" lon="6.23584">
        <ele>134.8</ele>
        <time>2025-10-13T09:46:44.000Z</time>
      </trkpt>
      <trkpt lat="43.50874" lon="6.23575">
        <ele>135.1</ele>
        <time>2025-10-13T09:46:53.000Z</time>
      </trkpt>
      <trkpt lat="43.50864" lon="6.23571">
        <ele>133.5</ele>
        <time>2025-10-13T09:47:03.000Z</time>
      </trkpt>
      <trkpt lat="43.50855" lon="6.23569">
        <ele>133.2</ele>
        <time>2025-10-13T09:47:12.000Z</time>
      </trkpt>
      <trkpt lat="43.50846" lon="6.23569">
        <ele>131.7</ele>
        <time>2025-10-13T09:47:21.000Z</time>
      </trkpt>
      <trkpt lat="43.50836" lon="6.23572">
        <ele>132.3</ele>
        <time>2025-10-13T09:47:38.000Z</time>
      </trkpt>
      <trkpt lat="43.50826" lon="6.2357">
        <ele>130.8</ele>
        <time>2025-10-13T09:47:47.000Z</time>
      </trkpt>
      <trkpt lat="43.50817" lon="6.2357">
        <ele>129.9</ele>
        <time>2025-10-13T09:47:58.000Z</time>
      </trkpt>
      <trkpt lat="43.50807" lon="6.23567">
        <ele>129.5</ele>
        <time>2025-10-13T09:48:09.000Z</time>
      </trkpt>
      <trkpt lat="43.50797" lon="6.23566">
        <ele>130.8</ele>
        <time>2025-10-13T09:48:19.000Z</time>
      </trkpt>
      <trkpt lat="43.50788" lon="6.23569">
        <ele>126.1</ele>
        <time>2025-10-13T09:48:29.000Z</time>
      </trkpt>
      <trkpt lat="43.50779" lon="6.2357">
        <ele>126.6</ele>
        <time>2025-10-13T09:48:38.000Z</time>
      </trkpt>
      <trkpt lat="43.5077" lon="6.23569">
        <ele>130.8</ele>
        <time>2025-10-13T09:48:49.000Z</time>
      </trkpt>
      <trkpt lat="43.5076" lon="6.23569">
        <ele>133.3</ele>
        <time>2025-10-13T09:49:00.000Z</time>
      </trkpt>
      <trkpt lat="43.50751" lon="6.23567">
        <ele>134.4</ele>
        <time>2025-10-13T09:49:11.000Z</time>
      </trkpt>
      <trkpt lat="43.50741" lon="6.23566">
        <ele>132.3</ele>
        <time>2025-10-13T09:49:20.000Z</time>
      </trkpt>
      <trkpt lat="43.50732" lon="6.23566">
        <ele>134.1</ele>
        <time>2025-10-13T09:49:29.000Z</time>
      </trkpt>
      <trkpt lat="43.50725" lon="6.23573">
        <ele>131.4</ele>
        <time>2025-10-13T09:49:38.000Z</time>
      </trkpt>
      <trkpt lat="43.50717" lon="6.23581">
        <ele>133.9</ele>
        <time>2025-10-13T09:49:50.000Z</time>
      </trkpt>
      <trkpt lat="43.5071" lon="6.23589">
        <ele>134.7</ele>
        <time>2025-10-13T09:50:01.000Z</time>
      </trkpt>
      <trkpt lat="43.50704" lon="6.236">
        <ele>138.6</ele>
        <time>2025-10-13T09:50:12.000Z</time>
      </trkpt>
      <trkpt lat="43.50694" lon="6.23601">
        <ele>132.5</ele>
        <time>2025-10-13T09:50:24.000Z</time>
      </trkpt>
      <trkpt lat="43.50685" lon="6.23597">
        <ele>133.9</ele>
        <time>2025-10-13T09:50:34.000Z</time>
      </trkpt>
      <trkpt lat="43.50676" lon="6.23592">
        <ele>134.8</ele>
        <time>2025-10-13T09:50:43.000Z</time>
      </trkpt>
      <trkpt lat="43.50667" lon="6.2359">
        <ele>131.3</ele>
        <time>2025-10-13T09:50:53.000Z</time>
      </trkpt>
      <trkpt lat="43.50657" lon="6.23587">
        <ele>129</ele>
        <time>2025-10-13T09:51:05.000Z</time>
      </trkpt>
      <trkpt lat="43.50648" lon="6.23585">
        <ele>129</ele>
        <time>2025-10-13T09:51:15.000Z</time>
      </trkpt>
      <trkpt lat="43.5064" lon="6.2358">
        <ele>130.5</ele>
        <time>2025-10-13T09:51:25.000Z</time>
      </trkpt>
      <trkpt lat="43.5063" lon="6.23575">
        <ele>137.7</ele>
        <time>2025-10-13T09:52:03.000Z</time>
      </trkpt>
      <trkpt lat="43.50621" lon="6.23574">
        <ele>138.3</ele>
        <time>2025-10-13T09:52:14.000Z</time>
      </trkpt>
      <trkpt lat="43.50611" lon="6.23575">
        <ele>139.5</ele>
        <time>2025-10-13T09:52:27.000Z</time>
      </trkpt>
      <trkpt lat="43.50603" lon="6.23583">
        <ele>140.9</ele>
        <time>2025-10-13T09:52:38.000Z</time>
      </trkpt>
      <trkpt lat="43.506" lon="6.23594">
        <ele>141.6</ele>
        <time>2025-10-13T09:53:19.000Z</time>
      </trkpt>
      <trkpt lat="43.5059" lon="6.23596">
        <ele>146.2</ele>
        <time>2025-10-13T09:54:53.000Z</time>
      </trkpt>
      <trkpt lat="43.50584" lon="6.23607">
        <ele>148.6</ele>
        <time>2025-10-13T09:58:22.000Z</time>
      </trkpt>
      <trkpt lat="43.50576" lon="6.23613">
        <ele>148.8</ele>
        <time>2025-10-13T09:58:31.000Z</time>
      </trkpt>
      <trkpt lat="43.50567" lon="6.23619">
        <ele>144.6</ele>
        <time>2025-10-13T09:58:41.000Z</time>
      </trkpt>
      <trkpt lat="43.50559" lon="6.23624">
        <ele>144.5</ele>
        <time>2025-10-13T09:58:50.000Z</time>
      </trkpt>
      <trkpt lat="43.50549" lon="6.23625">
        <ele>145.1</ele>
        <time>2025-10-13T09:59:00.000Z</time>
      </trkpt>
      <trkpt lat="43.50541" lon="6.23632">
        <ele>143.5</ele>
        <time>2025-10-13T09:59:17.000Z</time>
      </trkpt>
      <trkpt lat="43.50534" lon="6.23641">
        <ele>147.9</ele>
        <time>2025-10-13T09:59:40.000Z</time>
      </trkpt>
      <trkpt lat="43.50528" lon="6.23651">
        <ele>143.7</ele>
        <time>2025-10-13T09:59:48.000Z</time>
      </trkpt>
      <trkpt lat="43.50528" lon="6.23664">
        <ele>146.3</ele>
        <time>2025-10-13T09:59:57.000Z</time>
      </trkpt>
      <trkpt lat="43.50524" lon="6.23677">
        <ele>146.6</ele>
        <time>2025-10-13T10:00:06.000Z</time>
      </trkpt>
      <trkpt lat="43.50521" lon="6.23689">
        <ele>153.1</ele>
        <time>2025-10-13T10:00:22.000Z</time>
      </trkpt>
      <trkpt lat="43.50517" lon="6.23701">
        <ele>152.6</ele>
        <time>2025-10-13T10:00:27.000Z</time>
      </trkpt>
      <trkpt lat="43.50513" lon="6.23713">
        <ele>153.5</ele>
        <time>2025-10-13T10:00:37.000Z</time>
      </trkpt>
      <trkpt lat="43.5051" lon="6.23725">
        <ele>154.2</ele>
        <time>2025-10-13T10:00:44.000Z</time>
      </trkpt>
      <trkpt lat="43.50506" lon="6.23738">
        <ele>155.1</ele>
        <time>2025-10-13T10:01:00.000Z</time>
      </trkpt>
      <trkpt lat="43.50504" lon="6.23751">
        <ele>155.6</ele>
        <time>2025-10-13T10:01:09.000Z</time>
      </trkpt>
      <trkpt lat="43.50506" lon="6.23764">
        <ele>156.1</ele>
        <time>2025-10-13T10:01:19.000Z</time>
      </trkpt>
      <trkpt lat="43.50516" lon="6.23765">
        <ele>158.3</ele>
        <time>2025-10-13T10:01:29.000Z</time>
      </trkpt>
      <trkpt lat="43.50523" lon="6.23757">
        <ele>160.4</ele>
        <time>2025-10-13T10:01:40.000Z</time>
      </trkpt>
      <trkpt lat="43.50531" lon="6.2375">
        <ele>160.2</ele>
        <time>2025-10-13T10:01:51.000Z</time>
      </trkpt>
      <trkpt lat="43.50539" lon="6.23744">
        <ele>156.9</ele>
        <time>2025-10-13T10:02:07.000Z</time>
      </trkpt>
      <trkpt lat="43.50548" lon="6.23741">
        <ele>160.4</ele>
        <time>2025-10-13T10:02:20.000Z</time>
      </trkpt>
      <trkpt lat="43.50556" lon="6.23733">
        <ele>160.9</ele>
        <time>2025-10-13T10:02:42.000Z</time>
      </trkpt>
      <trkpt lat="43.50565" lon="6.23729">
        <ele>160.9</ele>
        <time>2025-10-13T10:02:56.000Z</time>
      </trkpt>
      <trkpt lat="43.50574" lon="6.23732">
        <ele>157</ele>
        <time>2025-10-13T10:04:54.000Z</time>
      </trkpt>
      <trkpt lat="43.50567" lon="6.23724">
        <ele>164.9</ele>
        <time>2025-10-13T10:10:48.000Z</time>
      </trkpt>
      <trkpt lat="43.50575" lon="6.23729">
        <ele>156.1</ele>
        <time>2025-10-13T10:20:17.000Z</time>
      </trkpt>
      <trkpt lat="43.50566" lon="6.23732">
        <ele>164.6</ele>
        <time>2025-10-13T10:23:26.000Z</time>
      </trkpt>
      <trkpt lat="43.50575" lon="6.23728">
        <ele>159.5</ele>
        <time>2025-10-13T10:40:37.000Z</time>
      </trkpt>
      <trkpt lat="43.50568" lon="6.23735">
        <ele>159.4</ele>
        <time>2025-10-13T10:49:11.000Z</time>
      </trkpt>
      <trkpt lat="43.50559" lon="6.23732">
        <ele>157.7</ele>
        <time>2025-10-13T10:57:25.000Z</time>
      </trkpt>
      <trkpt lat="43.50555" lon="6.23744">
        <ele>157.2</ele>
        <time>2025-10-13T10:57:56.000Z</time>
      </trkpt>
      <trkpt lat="43.50546" lon="6.2375">
        <ele>157.6</ele>
        <time>2025-10-13T10:58:08.000Z</time>
      </trkpt>
      <trkpt lat="43.5054" lon="6.23759">
        <ele>157.4</ele>
        <time>2025-10-13T10:58:27.000Z</time>
      </trkpt>
      <trkpt lat="43.50535" lon="6.2377">
        <ele>156.9</ele>
        <time>2025-10-13T10:58:41.000Z</time>
      </trkpt>
      <trkpt lat="43.50529" lon="6.2378">
        <ele>157.4</ele>
        <time>2025-10-13T10:59:11.000Z</time>
      </trkpt>
      <trkpt lat="43.50522" lon="6.23789">
        <ele>157.4</ele>
        <time>2025-10-13T10:59:25.000Z</time>
      </trkpt>
      <trkpt lat="43.50516" lon="6.23798">
        <ele>158.2</ele>
        <time>2025-10-13T10:59:41.000Z</time>
      </trkpt>
      <trkpt lat="43.50507" lon="6.238">
        <ele>159.7</ele>
        <time>2025-10-13T11:00:01.000Z</time>
      </trkpt>
      <trkpt lat="43.50498" lon="6.238">
        <ele>161.9</ele>
        <time>2025-10-13T11:00:12.000Z</time>
      </trkpt>
      <trkpt lat="43.50488" lon="6.238">
        <ele>161.4</ele>
        <time>2025-10-13T11:00:22.000Z</time>
      </trkpt>
      <trkpt lat="43.50478" lon="6.23801">
        <ele>162.2</ele>
        <time>2025-10-13T11:00:33.000Z</time>
      </trkpt>
      <trkpt lat="43.50469" lon="6.23797">
        <ele>160.3</ele>
        <time>2025-10-13T11:00:58.000Z</time>
      </trkpt>
      <trkpt lat="43.5046" lon="6.23794">
        <ele>160.6</ele>
        <time>2025-10-13T11:01:50.000Z</time>
      </trkpt>
      <trkpt lat="43.50451" lon="6.23797">
        <ele>160.8</ele>
        <time>2025-10-13T11:02:17.000Z</time>
      </trkpt>
      <trkpt lat="43.50442" lon="6.23791">
        <ele>165.5</ele>
        <time>2025-10-13T11:02:35.000Z</time>
      </trkpt>
      <trkpt lat="43.50433" lon="6.23787">
        <ele>165.1</ele>
        <time>2025-10-13T11:02:49.000Z</time>
      </trkpt>
      <trkpt lat="43.50424" lon="6.23788">
        <ele>165.8</ele>
        <time>2025-10-13T11:03:02.000Z</time>
      </trkpt>
      <trkpt lat="43.50414" lon="6.23792">
        <ele>165.8</ele>
        <time>2025-10-13T11:03:13.000Z</time>
      </trkpt>
      <trkpt lat="43.50409" lon="6.23802">
        <ele>165.1</ele>
        <time>2025-10-13T11:03:27.000Z</time>
      </trkpt>
      <trkpt lat="43.50401" lon="6.23808">
        <ele>164.1</ele>
        <time>2025-10-13T11:03:47.000Z</time>
      </trkpt>
      <trkpt lat="43.50392" lon="6.23806">
        <ele>161.2</ele>
        <time>2025-10-13T11:04:11.000Z</time>
      </trkpt>
      <trkpt lat="43.50383" lon="6.23802">
        <ele>158.7</ele>
        <time>2025-10-13T11:04:24.000Z</time>
      </trkpt>
      <trkpt lat="43.50373" lon="6.23799">
        <ele>153.5</ele>
        <time>2025-10-13T11:04:55.000Z</time>
      </trkpt>
      <trkpt lat="43.50364" lon="6.23797">
        <ele>155.2</ele>
        <time>2025-10-13T11:05:03.000Z</time>
      </trkpt>
      <trkpt lat="43.50355" lon="6.23797">
        <ele>156.8</ele>
        <time>2025-10-13T11:05:16.000Z</time>
      </trkpt>
      <trkpt lat="43.50346" lon="6.23793">
        <ele>156.3</ele>
        <time>2025-10-13T11:05:26.000Z</time>
      </trkpt>
      <trkpt lat="43.50336" lon="6.23791">
        <ele>156.6</ele>
        <time>2025-10-13T11:05:35.000Z</time>
      </trkpt>
      <trkpt lat="43.50326" lon="6.23788">
        <ele>157</ele>
        <time>2025-10-13T11:05:45.000Z</time>
      </trkpt>
      <trkpt lat="43.50317" lon="6.23782">
        <ele>158.3</ele>
        <time>2025-10-13T11:05:55.000Z</time>
      </trkpt>
      <trkpt lat="43.50318" lon="6.23769">
        <ele>157.6</ele>
        <time>2025-10-13T11:06:13.000Z</time>
      </trkpt>
      <trkpt lat="43.50322" lon="6.23758">
        <ele>157.3</ele>
        <time>2025-10-13T11:06:24.000Z</time>
      </trkpt>
      <trkpt lat="43.50324" lon="6.23746">
        <ele>157.9</ele>
        <time>2025-10-13T11:06:34.000Z</time>
      </trkpt>
      <trkpt lat="43.5032" lon="6.23733">
        <ele>160.8</ele>
        <time>2025-10-13T11:06:48.000Z</time>
      </trkpt>
      <trkpt lat="43.50312" lon="6.23727">
        <ele>161.9</ele>
        <time>2025-10-13T11:07:00.000Z</time>
      </trkpt>
      <trkpt lat="43.50303" lon="6.23726">
        <ele>161.7</ele>
        <time>2025-10-13T11:07:12.000Z</time>
      </trkpt>
      <trkpt lat="43.50294" lon="6.23723">
        <ele>162</ele>
        <time>2025-10-13T11:07:22.000Z</time>
      </trkpt>
      <trkpt lat="43.50285" lon="6.23718">
        <ele>160.2</ele>
        <time>2025-10-13T11:07:34.000Z</time>
      </trkpt>
      <trkpt lat="43.50277" lon="6.2371">
        <ele>161.5</ele>
        <time>2025-10-13T11:07:46.000Z</time>
      </trkpt>
      <trkpt lat="43.5027" lon="6.23702">
        <ele>164.4</ele>
        <time>2025-10-13T11:08:00.000Z</time>
      </trkpt>
      <trkpt lat="43.50263" lon="6.23695">
        <ele>169.1</ele>
        <time>2025-10-13T11:08:15.000Z</time>
      </trkpt>
      <trkpt lat="43.50259" lon="6.23683">
        <ele>173.6</ele>
        <time>2025-10-13T11:08:28.000Z</time>
      </trkpt>
      <trkpt lat="43.50258" lon="6.2367">
        <ele>175.2</ele>
        <time>2025-10-13T11:08:43.000Z</time>
      </trkpt>
      <trkpt lat="43.50258" lon="6.23658">
        <ele>172.5</ele>
        <time>2025-10-13T11:08:57.000Z</time>
      </trkpt>
      <trkpt lat="43.50259" lon="6.23645">
        <ele>169.7</ele>
        <time>2025-10-13T11:09:10.000Z</time>
      </trkpt>
      <trkpt lat="43.5026" lon="6.23633">
        <ele>170</ele>
        <time>2025-10-13T11:09:20.000Z</time>
      </trkpt>
      <trkpt lat="43.50261" lon="6.2362">
        <ele>169.5</ele>
        <time>2025-10-13T11:09:35.000Z</time>
      </trkpt>
      <trkpt lat="43.50262" lon="6.23607">
        <ele>171.1</ele>
        <time>2025-10-13T11:09:52.000Z</time>
      </trkpt>
      <trkpt lat="43.50263" lon="6.23594">
        <ele>172.5</ele>
        <time>2025-10-13T11:10:02.000Z</time>
      </trkpt>
      <trkpt lat="43.50265" lon="6.23582">
        <ele>173.8</ele>
        <time>2025-10-13T11:10:13.000Z</time>
      </trkpt>
      <trkpt lat="43.50268" lon="6.23569">
        <ele>175.4</ele>
        <time>2025-10-13T11:10:25.000Z</time>
      </trkpt>
      <trkpt lat="43.50271" lon="6.23557">
        <ele>173.5</ele>
        <time>2025-10-13T11:10:37.000Z</time>
      </trkpt>
      <trkpt lat="43.50276" lon="6.23547">
        <ele>169.7</ele>
        <time>2025-10-13T11:11:27.000Z</time>
      </trkpt>
      <trkpt lat="43.50284" lon="6.23541">
        <ele>171</ele>
        <time>2025-10-13T11:12:15.000Z</time>
      </trkpt>
      <trkpt lat="43.50291" lon="6.23533">
        <ele>169.2</ele>
        <time>2025-10-13T11:12:27.000Z</time>
      </trkpt>
      <trkpt lat="43.50299" lon="6.23525">
        <ele>170.8</ele>
        <time>2025-10-13T11:12:39.000Z</time>
      </trkpt>
      <trkpt lat="43.50306" lon="6.23518">
        <ele>171</ele>
        <time>2025-10-13T11:12:55.000Z</time>
      </trkpt>
      <trkpt lat="43.50313" lon="6.2351">
        <ele>168.8</ele>
        <time>2025-10-13T11:13:12.000Z</time>
      </trkpt>
      <trkpt lat="43.50321" lon="6.23503">
        <ele>170.6</ele>
        <time>2025-10-13T11:13:22.000Z</time>
      </trkpt>
      <trkpt lat="43.5033" lon="6.23497">
        <ele>167.6</ele>
        <time>2025-10-13T11:13:35.000Z</time>
      </trkpt>
      <trkpt lat="43.50339" lon="6.23493">
        <ele>166.4</ele>
        <time>2025-10-13T11:13:53.000Z</time>
      </trkpt>
      <trkpt lat="43.50347" lon="6.23485">
        <ele>165.4</ele>
        <time>2025-10-13T11:14:04.000Z</time>
      </trkpt>
      <trkpt lat="43.50353" lon="6.23476">
        <ele>165.1</ele>
        <time>2025-10-13T11:14:15.000Z</time>
      </trkpt>
      <trkpt lat="43.50362" lon="6.2347">
        <ele>163.3</ele>
        <time>2025-10-13T11:14:29.000Z</time>
      </trkpt>
      <trkpt lat="43.50366" lon="6.23459">
        <ele>160.5</ele>
        <time>2025-10-13T11:14:45.000Z</time>
      </trkpt>
      <trkpt lat="43.5037" lon="6.23447">
        <ele>158.6</ele>
        <time>2025-10-13T11:14:55.000Z</time>
      </trkpt>
      <trkpt lat="43.50372" lon="6.23434">
        <ele>155.4</ele>
        <time>2025-10-13T11:15:09.000Z</time>
      </trkpt>
      <trkpt lat="43.50373" lon="6.23421">
        <ele>155</ele>
        <time>2025-10-13T11:15:20.000Z</time>
      </trkpt>
      <trkpt lat="43.5037" lon="6.23408">
        <ele>156.9</ele>
        <time>2025-10-13T11:15:33.000Z</time>
      </trkpt>
      <trkpt lat="43.50368" lon="6.23396">
        <ele>157.5</ele>
        <time>2025-10-13T11:15:46.000Z</time>
      </trkpt>
      <trkpt lat="43.50367" lon="6.23383">
        <ele>154.2</ele>
        <time>2025-10-13T11:16:09.000Z</time>
      </trkpt>
      <trkpt lat="43.50368" lon="6.2337">
        <ele>152</ele>
        <time>2025-10-13T11:16:26.000Z</time>
      </trkpt>
      <trkpt lat="43.5037" lon="6.23358">
        <ele>149.6</ele>
        <time>2025-10-13T11:17:51.000Z</time>
      </trkpt>
      <trkpt lat="43.50367" lon="6.23347">
        <ele>148.9</ele>
        <time>2025-10-13T11:18:38.000Z</time>
      </trkpt>
      <trkpt lat="43.50368" lon="6.23334">
        <ele>148.9</ele>
        <time>2025-10-13T11:18:49.000Z</time>
      </trkpt>
      <trkpt lat="43.50368" lon="6.2332">
        <ele>147.3</ele>
        <time>2025-10-13T11:19:00.000Z</time>
      </trkpt>
      <trkpt lat="43.50368" lon="6.23308">
        <ele>145.7</ele>
        <time>2025-10-13T11:19:11.000Z</time>
      </trkpt>
      <trkpt lat="43.5037" lon="6.23296">
        <ele>143.9</ele>
        <time>2025-10-13T11:19:21.000Z</time>
      </trkpt>
      <trkpt lat="43.50373" lon="6.23284">
        <ele>143.7</ele>
        <time>2025-10-13T11:19:32.000Z</time>
      </trkpt>
      <trkpt lat="43.50377" lon="6.23272">
        <ele>142.3</ele>
        <time>2025-10-13T11:19:46.000Z</time>
      </trkpt>
      <trkpt lat="43.50383" lon="6.23262">
        <ele>140.5</ele>
        <time>2025-10-13T11:19:58.000Z</time>
      </trkpt>
      <trkpt lat="43.50383" lon="6.23249">
        <ele>139.3</ele>
        <time>2025-10-13T11:20:11.000Z</time>
      </trkpt>
      <trkpt lat="43.50381" lon="6.23237">
        <ele>138.7</ele>
        <time>2025-10-13T11:20:22.000Z</time>
      </trkpt>
      <trkpt lat="43.50383" lon="6.23224">
        <ele>138.2</ele>
        <time>2025-10-13T11:20:33.000Z</time>
      </trkpt>
      <trkpt lat="43.50387" lon="6.23212">
        <ele>137.3</ele>
        <time>2025-10-13T11:20:44.000Z</time>
      </trkpt>
      <trkpt lat="43.50393" lon="6.23203">
        <ele>136.6</ele>
        <time>2025-10-13T11:21:03.000Z</time>
      </trkpt>
      <trkpt lat="43.50394" lon="6.23189">
        <ele>134.7</ele>
        <time>2025-10-13T11:21:17.000Z</time>
      </trkpt>
      <trkpt lat="43.50386" lon="6.23182">
        <ele>134.9</ele>
        <time>2025-10-13T11:21:30.000Z</time>
      </trkpt>
      <trkpt lat="43.50379" lon="6.23175">
        <ele>135.2</ele>
        <time>2025-10-13T11:21:42.000Z</time>
      </trkpt>
      <trkpt lat="43.5037" lon="6.23171">
        <ele>138.5</ele>
        <time>2025-10-13T11:22:25.000Z</time>
      </trkpt>
      <trkpt lat="43.50362" lon="6.23167">
        <ele>140.3</ele>
        <time>2025-10-13T11:22:36.000Z</time>
      </trkpt>
      <trkpt lat="43.50352" lon="6.23163">
        <ele>139</ele>
        <time>2025-10-13T11:22:46.000Z</time>
      </trkpt>
      <trkpt lat="43.50343" lon="6.23162">
        <ele>138.2</ele>
        <time>2025-10-13T11:22:56.000Z</time>
      </trkpt>
      <trkpt lat="43.50334" lon="6.23159">
        <ele>137.8</ele>
        <time>2025-10-13T11:23:06.000Z</time>
      </trkpt>
      <trkpt lat="43.50325" lon="6.23156">
        <ele>137.1</ele>
        <time>2025-10-13T11:23:16.000Z</time>
      </trkpt>
      <trkpt lat="43.50316" lon="6.2315">
        <ele>136.2</ele>
        <time>2025-10-13T11:23:26.000Z</time>
      </trkpt>
      <trkpt lat="43.50308" lon="6.23145">
        <ele>135.7</ele>
        <time>2025-10-13T11:23:38.000Z</time>
      </trkpt>
      <trkpt lat="43.50298" lon="6.23143">
        <ele>135.1</ele>
        <time>2025-10-13T11:23:49.000Z</time>
      </trkpt>
      <trkpt lat="43.50289" lon="6.23142">
        <ele>135.6</ele>
        <time>2025-10-13T11:24:03.000Z</time>
      </trkpt>
      <trkpt lat="43.50279" lon="6.23141">
        <ele>133.8</ele>
        <time>2025-10-13T11:24:15.000Z</time>
      </trkpt>
      <trkpt lat="43.50269" lon="6.2314">
        <ele>133.3</ele>
        <time>2025-10-13T11:24:27.000Z</time>
      </trkpt>
      <trkpt lat="43.5026" lon="6.23138">
        <ele>131.7</ele>
        <time>2025-10-13T11:24:38.000Z</time>
      </trkpt>
      <trkpt lat="43.50251" lon="6.23133">
        <ele>130.9</ele>
        <time>2025-10-13T11:24:49.000Z</time>
      </trkpt>
      <trkpt lat="43.50242" lon="6.23129">
        <ele>130.1</ele>
        <time>2025-10-13T11:25:00.000Z</time>
      </trkpt>
      <trkpt lat="43.50234" lon="6.23121">
        <ele>132</ele>
        <time>2025-10-13T11:25:09.000Z</time>
      </trkpt>
      <trkpt lat="43.50225" lon="6.23118">
        <ele>132.6</ele>
        <time>2025-10-13T11:25:21.000Z</time>
      </trkpt>
      <trkpt lat="43.50217" lon="6.23112">
        <ele>134.4</ele>
        <time>2025-10-13T11:25:29.000Z</time>
      </trkpt>
      <trkpt lat="43.50209" lon="6.23106">
        <ele>136.3</ele>
        <time>2025-10-13T11:25:39.000Z</time>
      </trkpt>
      <trkpt lat="43.502" lon="6.23103">
        <ele>135.7</ele>
        <time>2025-10-13T11:25:58.000Z</time>
      </trkpt>
      <trkpt lat="43.50195" lon="6.23092">
        <ele>139</ele>
        <time>2025-10-13T11:26:10.000Z</time>
      </trkpt>
      <trkpt lat="43.50187" lon="6.23085">
        <ele>139.8</ele>
        <time>2025-10-13T11:26:20.000Z</time>
      </trkpt>
      <trkpt lat="43.50181" lon="6.23074">
        <ele>139.8</ele>
        <time>2025-10-13T11:26:30.000Z</time>
      </trkpt>
      <trkpt lat="43.50173" lon="6.23068">
        <ele>138.2</ele>
        <time>2025-10-13T11:26:40.000Z</time>
      </trkpt>
      <trkpt lat="43.50166" lon="6.23059">
        <ele>138.8</ele>
        <time>2025-10-13T11:26:51.000Z</time>
      </trkpt>
      <trkpt lat="43.50158" lon="6.23052">
        <ele>139.1</ele>
        <time>2025-10-13T11:27:01.000Z</time>
      </trkpt>
      <trkpt lat="43.50151" lon="6.23043">
        <ele>136.8</ele>
        <time>2025-10-13T11:27:10.000Z</time>
      </trkpt>
      <trkpt lat="43.50143" lon="6.23035">
        <ele>134.4</ele>
        <time>2025-10-13T11:27:20.000Z</time>
      </trkpt>
      <trkpt lat="43.50136" lon="6.23027">
        <ele>133.2</ele>
        <time>2025-10-13T11:27:31.000Z</time>
      </trkpt>
      <trkpt lat="43.50128" lon="6.23021">
        <ele>136.7</ele>
        <time>2025-10-13T11:27:40.000Z</time>
      </trkpt>
      <trkpt lat="43.5012" lon="6.23013">
        <ele>138.7</ele>
        <time>2025-10-13T11:27:51.000Z</time>
      </trkpt>
      <trkpt lat="43.50111" lon="6.23011">
        <ele>137.6</ele>
        <time>2025-10-13T11:28:01.000Z</time>
      </trkpt>
      <trkpt lat="43.50101" lon="6.23011">
        <ele>137.7</ele>
        <time>2025-10-13T11:28:11.000Z</time>
      </trkpt>
      <trkpt lat="43.50093" lon="6.23005">
        <ele>137.8</ele>
        <time>2025-10-13T11:28:29.000Z</time>
      </trkpt>
      <trkpt lat="43.50083" lon="6.23002">
        <ele>136.3</ele>
        <time>2025-10-13T11:28:39.000Z</time>
      </trkpt>
      <trkpt lat="43.50081" lon="6.22989">
        <ele>134.1</ele>
        <time>2025-10-13T11:28:52.000Z</time>
      </trkpt>
      <trkpt lat="43.50082" lon="6.22976">
        <ele>134</ele>
        <time>2025-10-13T11:29:02.000Z</time>
      </trkpt>
      <trkpt lat="43.50085" lon="6.22963">
        <ele>132.6</ele>
        <time>2025-10-13T11:29:17.000Z</time>
      </trkpt>
      <trkpt lat="43.50089" lon="6.22951">
        <ele>132</ele>
        <time>2025-10-13T11:29:26.000Z</time>
      </trkpt>
      <trkpt lat="43.50091" lon="6.22938">
        <ele>131.7</ele>
        <time>2025-10-13T11:29:40.000Z</time>
      </trkpt>
      <trkpt lat="43.50095" lon="6.22927">
        <ele>129.5</ele>
        <time>2025-10-13T11:29:50.000Z</time>
      </trkpt>
      <trkpt lat="43.50097" lon="6.22915">
        <ele>129.2</ele>
        <time>2025-10-13T11:30:00.000Z</time>
      </trkpt>
      <trkpt lat="43.501" lon="6.22902">
        <ele>129.2</ele>
        <time>2025-10-13T11:30:10.000Z</time>
      </trkpt>
      <trkpt lat="43.50103" lon="6.2289">
        <ele>128.7</ele>
        <time>2025-10-13T11:30:20.000Z</time>
      </trkpt>
      <trkpt lat="43.50106" lon="6.22878">
        <ele>127.9</ele>
        <time>2025-10-13T11:30:32.000Z</time>
      </trkpt>
      <trkpt lat="43.50111" lon="6.22867">
        <ele>127.1</ele>
        <time>2025-10-13T11:30:42.000Z</time>
      </trkpt>
      <trkpt lat="43.50116" lon="6.22856">
        <ele>127.5</ele>
        <time>2025-10-13T11:30:52.000Z</time>
      </trkpt>
      <trkpt lat="43.50121" lon="6.22845">
        <ele>126.7</ele>
        <time>2025-10-13T11:31:02.000Z</time>
      </trkpt>
      <trkpt lat="43.50126" lon="6.22833">
        <ele>126.5</ele>
        <time>2025-10-13T11:31:13.000Z</time>
      </trkpt>
      <trkpt lat="43.5013" lon="6.2282">
        <ele>127.2</ele>
        <time>2025-10-13T11:31:26.000Z</time>
      </trkpt>
      <trkpt lat="43.50127" lon="6.22807">
        <ele>126.3</ele>
        <time>2025-10-13T11:31:34.000Z</time>
      </trkpt>
      <trkpt lat="43.50123" lon="6.22794">
        <ele>125.6</ele>
        <time>2025-10-13T11:31:43.000Z</time>
      </trkpt>
      <trkpt lat="43.5012" lon="6.22782">
        <ele>125.2</ele>
        <time>2025-10-13T11:31:52.000Z</time>
      </trkpt>
      <trkpt lat="43.50117" lon="6.2277">
        <ele>125.7</ele>
        <time>2025-10-13T11:32:01.000Z</time>
      </trkpt>
      <trkpt lat="43.50114" lon="6.22758">
        <ele>125.2</ele>
        <time>2025-10-13T11:32:10.000Z</time>
      </trkpt>
      <trkpt lat="43.5011" lon="6.22746">
        <ele>126.5</ele>
        <time>2025-10-13T11:32:20.000Z</time>
      </trkpt>
      <trkpt lat="43.50107" lon="6.22734">
        <ele>126.6</ele>
        <time>2025-10-13T11:32:31.000Z</time>
      </trkpt>
      <trkpt lat="43.50101" lon="6.22724">
        <ele>129</ele>
        <time>2025-10-13T11:32:42.000Z</time>
      </trkpt>
      <trkpt lat="43.50093" lon="6.22717">
        <ele>129.4</ele>
        <time>2025-10-13T11:32:52.000Z</time>
      </trkpt>
      <trkpt lat="43.50085" lon="6.2271">
        <ele>128</ele>
        <time>2025-10-13T11:33:03.000Z</time>
      </trkpt>
      <trkpt lat="43.50075" lon="6.22705">
        <ele>132.3</ele>
        <time>2025-10-13T11:33:12.000Z</time>
      </trkpt>
      <trkpt lat="43.50068" lon="6.22698">
        <ele>130</ele>
        <time>2025-10-13T11:33:22.000Z</time>
      </trkpt>
      <trkpt lat="43.50059" lon="6.22693">
        <ele>131.1</ele>
        <time>2025-10-13T11:33:40.000Z</time>
      </trkpt>
      <trkpt lat="43.5005" lon="6.2269">
        <ele>130.1</ele>
        <time>2025-10-13T11:33:51.000Z</time>
      </trkpt>
      <trkpt lat="43.50041" lon="6.22686">
        <ele>128.7</ele>
        <time>2025-10-13T11:34:05.000Z</time>
      </trkpt>
      <trkpt lat="43.50033" lon="6.22679">
        <ele>128.9</ele>
        <time>2025-10-13T11:34:36.000Z</time>
      </trkpt>
      <trkpt lat="43.50025" lon="6.22673">
        <ele>126.4</ele>
        <time>2025-10-13T11:34:46.000Z</time>
      </trkpt>
      <trkpt lat="43.50016" lon="6.22668">
        <ele>127.1</ele>
        <time>2025-10-13T11:34:56.000Z</time>
      </trkpt>
      <trkpt lat="43.50008" lon="6.22664">
        <ele>125.7</ele>
        <time>2025-10-13T11:35:06.000Z</time>
      </trkpt>
      <trkpt lat="43.49999" lon="6.22657">
        <ele>124.2</ele>
        <time>2025-10-13T11:35:15.000Z</time>
      </trkpt>
      <trkpt lat="43.49991" lon="6.2265">
        <ele>123.5</ele>
        <time>2025-10-13T11:35:24.000Z</time>
      </trkpt>
      <trkpt lat="43.49984" lon="6.22642">
        <ele>122.3</ele>
        <time>2025-10-13T11:35:32.000Z</time>
      </trkpt>
      <trkpt lat="43.49976" lon="6.22633">
        <ele>123.7</ele>
        <time>2025-10-13T11:35:41.000Z</time>
      </trkpt>
      <trkpt lat="43.49969" lon="6.22624">
        <ele>124.1</ele>
        <time>2025-10-13T11:35:50.000Z</time>
      </trkpt>
      <trkpt lat="43.49962" lon="6.22615">
        <ele>124.2</ele>
        <time>2025-10-13T11:35:59.000Z</time>
      </trkpt>
      <trkpt lat="43.49955" lon="6.22604">
        <ele>124</ele>
        <time>2025-10-13T11:36:08.000Z</time>
      </trkpt>
      <trkpt lat="43.49948" lon="6.22595">
        <ele>123.4</ele>
        <time>2025-10-13T11:36:16.000Z</time>
      </trkpt>
      <trkpt lat="43.49941" lon="6.22587">
        <ele>123.7</ele>
        <time>2025-10-13T11:36:25.000Z</time>
      </trkpt>
      <trkpt lat="43.49933" lon="6.22578">
        <ele>124</ele>
        <time>2025-10-13T11:36:35.000Z</time>
      </trkpt>
      <trkpt lat="43.49927" lon="6.2257">
        <ele>123.7</ele>
        <time>2025-10-13T11:36:45.000Z</time>
      </trkpt>
      <trkpt lat="43.4992" lon="6.22561">
        <ele>125</ele>
        <time>2025-10-13T11:36:55.000Z</time>
      </trkpt>
      <trkpt lat="43.49915" lon="6.22549">
        <ele>127</ele>
        <time>2025-10-13T11:37:07.000Z</time>
      </trkpt>
      <trkpt lat="43.49915" lon="6.22537">
        <ele>125.6</ele>
        <time>2025-10-13T11:37:27.000Z</time>
      </trkpt>
      <trkpt lat="43.49907" lon="6.22531">
        <ele>124.9</ele>
        <time>2025-10-13T11:37:51.000Z</time>
      </trkpt>
      <trkpt lat="43.49902" lon="6.22521">
        <ele>126.6</ele>
        <time>2025-10-13T11:38:08.000Z</time>
      </trkpt>
      <trkpt lat="43.49895" lon="6.22512">
        <ele>126.3</ele>
        <time>2025-10-13T11:38:27.000Z</time>
      </trkpt>
      <trkpt lat="43.49891" lon="6.22501">
        <ele>125.3</ele>
        <time>2025-10-13T11:38:37.000Z</time>
      </trkpt>
      <trkpt lat="43.49885" lon="6.22491">
        <ele>125.7</ele>
        <time>2025-10-13T11:38:49.000Z</time>
      </trkpt>
      <trkpt lat="43.49876" lon="6.22493">
        <ele>124.2</ele>
        <time>2025-10-13T11:39:26.000Z</time>
      </trkpt>
      <trkpt lat="43.49868" lon="6.22488">
        <ele>124.8</ele>
        <time>2025-10-13T11:43:11.000Z</time>
      </trkpt>
      <trkpt lat="43.49858" lon="6.22487">
        <ele>123.7</ele>
        <time>2025-10-13T11:43:21.000Z</time>
      </trkpt>
      <trkpt lat="43.49849" lon="6.22487">
        <ele>124.1</ele>
        <time>2025-10-13T11:43:30.000Z</time>
      </trkpt>
      <trkpt lat="43.49841" lon="6.22492">
        <ele>127.3</ele>
        <time>2025-10-13T11:43:57.000Z</time>
      </trkpt>
      <trkpt lat="43.49833" lon="6.22499">
        <ele>127.1</ele>
        <time>2025-10-13T11:44:28.000Z</time>
      </trkpt>
      <trkpt lat="43.49824" lon="6.22496">
        <ele>122.2</ele>
        <time>2025-10-13T11:44:50.000Z</time>
      </trkpt>
      <trkpt lat="43.49816" lon="6.22489">
        <ele>122.1</ele>
        <time>2025-10-13T11:45:01.000Z</time>
      </trkpt>
      <trkpt lat="43.49807" lon="6.22486">
        <ele>121.5</ele>
        <time>2025-10-13T11:45:12.000Z</time>
      </trkpt>
      <trkpt lat="43.49798" lon="6.22486">
        <ele>121.7</ele>
        <time>2025-10-13T11:45:31.000Z</time>
      </trkpt>
      <trkpt lat="43.49789" lon="6.22483">
        <ele>122.8</ele>
        <time>2025-10-13T11:45:41.000Z</time>
      </trkpt>
      <trkpt lat="43.49779" lon="6.22483">
        <ele>122.2</ele>
        <time>2025-10-13T11:45:51.000Z</time>
      </trkpt>
      <trkpt lat="43.4977" lon="6.22484">
        <ele>123.2</ele>
        <time>2025-10-13T11:46:02.000Z</time>
      </trkpt>
      <trkpt lat="43.4976" lon="6.22485">
        <ele>124.4</ele>
        <time>2025-10-13T11:46:17.000Z</time>
      </trkpt>
      <trkpt lat="43.49752" lon="6.2249">
        <ele>126.5</ele>
        <time>2025-10-13T11:46:35.000Z</time>
      </trkpt>
      <trkpt lat="43.49745" lon="6.22499">
        <ele>128.5</ele>
        <time>2025-10-13T11:46:46.000Z</time>
      </trkpt>
      <trkpt lat="43.49738" lon="6.22509">
        <ele>128.9</ele>
        <time>2025-10-13T11:46:57.000Z</time>
      </trkpt>
      <trkpt lat="43.49734" lon="6.2252">
        <ele>128.9</ele>
        <time>2025-10-13T11:47:07.000Z</time>
      </trkpt>
      <trkpt lat="43.4973" lon="6.22531">
        <ele>126.8</ele>
        <time>2025-10-13T11:47:16.000Z</time>
      </trkpt>
      <trkpt lat="43.49725" lon="6.22542">
        <ele>128.3</ele>
        <time>2025-10-13T11:47:29.000Z</time>
      </trkpt>
      <trkpt lat="43.49719" lon="6.22552">
        <ele>129.9</ele>
        <time>2025-10-13T11:48:13.000Z</time>
      </trkpt>
      <trkpt lat="43.4971" lon="6.22547">
        <ele>129.7</ele>
        <time>2025-10-13T11:49:00.000Z</time>
      </trkpt>
      <trkpt lat="43.49702" lon="6.22541">
        <ele>131.5</ele>
        <time>2025-10-13T11:49:09.000Z</time>
      </trkpt>
      <trkpt lat="43.49694" lon="6.22534">
        <ele>132.8</ele>
        <time>2025-10-13T11:49:18.000Z</time>
      </trkpt>
      <trkpt lat="43.49685" lon="6.2253">
        <ele>133.8</ele>
        <time>2025-10-13T11:49:29.000Z</time>
      </trkpt>
      <trkpt lat="43.49676" lon="6.22524">
        <ele>135</ele>
        <time>2025-10-13T11:49:39.000Z</time>
      </trkpt>
      <trkpt lat="43.49667" lon="6.2252">
        <ele>134.7</ele>
        <time>2025-10-13T11:49:49.000Z</time>
      </trkpt>
      <trkpt lat="43.49659" lon="6.22513">
        <ele>133.3</ele>
        <time>2025-10-13T11:49:59.000Z</time>
      </trkpt>
      <trkpt lat="43.49651" lon="6.22506">
        <ele>132.5</ele>
        <time>2025-10-13T11:50:08.000Z</time>
      </trkpt>
      <trkpt lat="43.49642" lon="6.22501">
        <ele>132.2</ele>
        <time>2025-10-13T11:50:17.000Z</time>
      </trkpt>
      <trkpt lat="43.49633" lon="6.22497">
        <ele>134.9</ele>
        <time>2025-10-13T11:50:29.000Z</time>
      </trkpt>
      <trkpt lat="43.49625" lon="6.22492">
        <ele>134.6</ele>
        <time>2025-10-13T11:50:40.000Z</time>
      </trkpt>
      <trkpt lat="43.49616" lon="6.22487">
        <ele>135.9</ele>
        <time>2025-10-13T11:50:49.000Z</time>
      </trkpt>
      <trkpt lat="43.49608" lon="6.22481">
        <ele>136.1</ele>
        <time>2025-10-13T11:50:58.000Z</time>
      </trkpt>
      <trkpt lat="43.496" lon="6.22473">
        <ele>137</ele>
        <time>2025-10-13T11:51:08.000Z</time>
      </trkpt>
      <trkpt lat="43.4959" lon="6.22473">
        <ele>137</ele>
        <time>2025-10-13T11:51:18.000Z</time>
      </trkpt>
      <trkpt lat="43.49582" lon="6.2248">
        <ele>133.5</ele>
        <time>2025-10-13T11:51:29.000Z</time>
      </trkpt>
      <trkpt lat="43.49575" lon="6.22488">
        <ele>130.9</ele>
        <time>2025-10-13T11:51:41.000Z</time>
      </trkpt>
      <trkpt lat="43.49569" lon="6.22497">
        <ele>129.4</ele>
        <time>2025-10-13T11:51:52.000Z</time>
      </trkpt>
      <trkpt lat="43.49564" lon="6.22507">
        <ele>129.9</ele>
        <time>2025-10-13T11:52:02.000Z</time>
      </trkpt>
      <trkpt lat="43.49558" lon="6.22517">
        <ele>130.3</ele>
        <time>2025-10-13T11:52:14.000Z</time>
      </trkpt>
      <trkpt lat="43.49552" lon="6.22528">
        <ele>129</ele>
        <time>2025-10-13T11:52:24.000Z</time>
      </trkpt>
      <trkpt lat="43.49546" lon="6.22538">
        <ele>129</ele>
        <time>2025-10-13T11:52:34.000Z</time>
      </trkpt>
      <trkpt lat="43.49539" lon="6.22547">
        <ele>131.1</ele>
        <time>2025-10-13T11:52:45.000Z</time>
      </trkpt>
      <trkpt lat="43.49532" lon="6.22556">
        <ele>133.3</ele>
        <time>2025-10-13T11:53:02.000Z</time>
      </trkpt>
      <trkpt lat="43.49525" lon="6.22564">
        <ele>131.6</ele>
        <time>2025-10-13T11:53:14.000Z</time>
      </trkpt>
      <trkpt lat="43.49517" lon="6.2257">
        <ele>133.3</ele>
        <time>2025-10-13T11:53:24.000Z</time>
      </trkpt>
      <trkpt lat="43.4951" lon="6.2258">
        <ele>130.6</ele>
        <time>2025-10-13T11:53:49.000Z</time>
      </trkpt>
      <trkpt lat="43.49503" lon="6.22589">
        <ele>134.5</ele>
        <time>2025-10-13T11:53:58.000Z</time>
      </trkpt>
      <trkpt lat="43.49495" lon="6.22596">
        <ele>132.5</ele>
        <time>2025-10-13T11:54:09.000Z</time>
      </trkpt>
      <trkpt lat="43.49488" lon="6.22604">
        <ele>127.3</ele>
        <time>2025-10-13T11:54:28.000Z</time>
      </trkpt>
      <trkpt lat="43.4948" lon="6.2261">
        <ele>124.6</ele>
        <time>2025-10-13T11:54:43.000Z</time>
      </trkpt>
      <trkpt lat="43.49474" lon="6.22621">
        <ele>125</ele>
        <time>2025-10-13T11:54:53.000Z</time>
      </trkpt>
      <trkpt lat="43.49468" lon="6.22632">
        <ele>126.5</ele>
        <time>2025-10-13T11:55:03.000Z</time>
      </trkpt>
      <trkpt lat="43.49462" lon="6.22641">
        <ele>130.2</ele>
        <time>2025-10-13T11:55:12.000Z</time>
      </trkpt>
      <trkpt lat="43.49458" lon="6.22654">
        <ele>131.4</ele>
        <time>2025-10-13T11:55:21.000Z</time>
      </trkpt>
      <trkpt lat="43.49452" lon="6.22664">
        <ele>131.1</ele>
        <time>2025-10-13T11:55:46.000Z</time>
      </trkpt>
      <trkpt lat="43.49447" lon="6.22675">
        <ele>128.5</ele>
        <time>2025-10-13T11:56:07.000Z</time>
      </trkpt>
      <trkpt lat="43.49444" lon="6.22687">
        <ele>127.6</ele>
        <time>2025-10-13T11:56:17.000Z</time>
      </trkpt>
      <trkpt lat="43.49438" lon="6.22698">
        <ele>129.9</ele>
        <time>2025-10-13T11:56:28.000Z</time>
      </trkpt>
      <trkpt lat="43.49432" lon="6.22708">
        <ele>131.3</ele>
        <time>2025-10-13T11:56:38.000Z</time>
      </trkpt>
      <trkpt lat="43.49425" lon="6.22719">
        <ele>133.4</ele>
        <time>2025-10-13T11:56:48.000Z</time>
      </trkpt>
      <trkpt lat="43.4942" lon="6.2273">
        <ele>129.3</ele>
        <time>2025-10-13T11:56:58.000Z</time>
      </trkpt>
      <trkpt lat="43.49413" lon="6.22739">
        <ele>130.6</ele>
        <time>2025-10-13T11:57:08.000Z</time>
      </trkpt>
      <trkpt lat="43.49407" lon="6.22748">
        <ele>130.2</ele>
        <time>2025-10-13T11:57:17.000Z</time>
      </trkpt>
      <trkpt lat="43.49399" lon="6.22756">
        <ele>131.3</ele>
        <time>2025-10-13T11:57:28.000Z</time>
      </trkpt>
      <trkpt lat="43.4939" lon="6.22761">
        <ele>130</ele>
        <time>2025-10-13T11:57:38.000Z</time>
      </trkpt>
      <trkpt lat="43.49381" lon="6.22762">
        <ele>128.4</ele>
        <time>2025-10-13T11:57:48.000Z</time>
      </trkpt>
      <trkpt lat="43.49372" lon="6.22761">
        <ele>127.2</ele>
        <time>2025-10-13T11:57:59.000Z</time>
      </trkpt>
      <trkpt lat="43.49362" lon="6.22762">
        <ele>128.9</ele>
        <time>2025-10-13T11:58:08.000Z</time>
      </trkpt>
      <trkpt lat="43.49352" lon="6.22764">
        <ele>125.5</ele>
        <time>2025-10-13T11:58:18.000Z</time>
      </trkpt>
      <trkpt lat="43.49342" lon="6.22765">
        <ele>125.9</ele>
        <time>2025-10-13T11:58:29.000Z</time>
      </trkpt>
      <trkpt lat="43.49333" lon="6.22766">
        <ele>127.8</ele>
        <time>2025-10-13T11:58:37.000Z</time>
      </trkpt>
      <trkpt lat="43.49324" lon="6.22765">
        <ele>127.3</ele>
        <time>2025-10-13T11:58:46.000Z</time>
      </trkpt>
      <trkpt lat="43.49315" lon="6.22766">
        <ele>125.4</ele>
        <time>2025-10-13T11:58:55.000Z</time>
      </trkpt>
      <trkpt lat="43.49305" lon="6.22769">
        <ele>126.4</ele>
        <time>2025-10-13T11:59:04.000Z</time>
      </trkpt>
      <trkpt lat="43.49296" lon="6.22771">
        <ele>126.2</ele>
        <time>2025-10-13T11:59:14.000Z</time>
      </trkpt>
      <trkpt lat="43.49287" lon="6.22773">
        <ele>126.6</ele>
        <time>2025-10-13T11:59:24.000Z</time>
      </trkpt>
      <trkpt lat="43.49277" lon="6.22776">
        <ele>128.1</ele>
        <time>2025-10-13T11:59:33.000Z</time>
      </trkpt>
      <trkpt lat="43.4927" lon="6.22785">
        <ele>133.7</ele>
        <time>2025-10-13T11:59:42.000Z</time>
      </trkpt>
      <trkpt lat="43.49262" lon="6.22793">
        <ele>130.5</ele>
        <time>2025-10-13T11:59:51.000Z</time>
      </trkpt>
      <trkpt lat="43.49254" lon="6.228">
        <ele>131.1</ele>
        <time>2025-10-13T12:00:01.000Z</time>
      </trkpt>
      <trkpt lat="43.49247" lon="6.22809">
        <ele>132.5</ele>
        <time>2025-10-13T12:00:09.000Z</time>
      </trkpt>
      <trkpt lat="43.49242" lon="6.22819">
        <ele>133.1</ele>
        <time>2025-10-13T12:00:18.000Z</time>
      </trkpt>
      <trkpt lat="43.49236" lon="6.22829">
        <ele>132.1</ele>
        <time>2025-10-13T12:00:27.000Z</time>
      </trkpt>
      <trkpt lat="43.49233" lon="6.22842">
        <ele>131.5</ele>
        <time>2025-10-13T12:00:37.000Z</time>
      </trkpt>
      <trkpt lat="43.49228" lon="6.22853">
        <ele>130.9</ele>
        <time>2025-10-13T12:00:48.000Z</time>
      </trkpt>
      <trkpt lat="43.4922" lon="6.22862">
        <ele>129.3</ele>
        <time>2025-10-13T12:00:58.000Z</time>
      </trkpt>
      <trkpt lat="43.49214" lon="6.22872">
        <ele>124.6</ele>
        <time>2025-10-13T12:01:10.000Z</time>
      </trkpt>
      <trkpt lat="43.49208" lon="6.22884">
        <ele>124.7</ele>
        <time>2025-10-13T12:01:19.000Z</time>
      </trkpt>
      <trkpt lat="43.49205" lon="6.22896">
        <ele>125.6</ele>
        <time>2025-10-13T12:01:29.000Z</time>
      </trkpt>
      <trkpt lat="43.49204" lon="6.22909">
        <ele>127.3</ele>
        <time>2025-10-13T12:01:38.000Z</time>
      </trkpt>
      <trkpt lat="43.49201" lon="6.22921">
        <ele>126.2</ele>
        <time>2025-10-13T12:01:48.000Z</time>
      </trkpt>
      <trkpt lat="43.492" lon="6.22934">
        <ele>126.4</ele>
        <time>2025-10-13T12:01:59.000Z</time>
      </trkpt>
      <trkpt lat="43.49194" lon="6.22944">
        <ele>126.8</ele>
        <time>2025-10-13T12:02:17.000Z</time>
      </trkpt>
      <trkpt lat="43.49198" lon="6.22932">
        <ele>129</ele>
        <time>2025-10-13T12:02:52.000Z</time>
      </trkpt>
      <trkpt lat="43.49202" lon="6.22921">
        <ele>148.6</ele>
        <time>2025-10-13T12:03:44.000Z</time>
      </trkpt>
      <trkpt lat="43.49198" lon="6.22909">
        <ele>154.8</ele>
        <time>2025-10-13T12:04:15.000Z</time>
      </trkpt>
      <trkpt lat="43.492" lon="6.22897">
        <ele>150.4</ele>
        <time>2025-10-13T12:04:28.000Z</time>
      </trkpt>
      <trkpt lat="43.49206" lon="6.22887">
        <ele>150.4</ele>
        <time>2025-10-13T12:04:37.000Z</time>
      </trkpt>
      <trkpt lat="43.49213" lon="6.22878">
        <ele>145.4</ele>
        <time>2025-10-13T12:04:52.000Z</time>
      </trkpt>
      <trkpt lat="43.49218" lon="6.22868">
        <ele>134.5</ele>
        <time>2025-10-13T12:05:08.000Z</time>
      </trkpt>
      <trkpt lat="43.49226" lon="6.2286">
        <ele>133.7</ele>
        <time>2025-10-13T12:05:31.000Z</time>
      </trkpt>
      <trkpt lat="43.49231" lon="6.22849">
        <ele>138</ele>
        <time>2025-10-13T12:05:41.000Z</time>
      </trkpt>
      <trkpt lat="43.49222" lon="6.22855">
        <ele>126.9</ele>
        <time>2025-10-13T12:06:40.000Z</time>
      </trkpt>
      <trkpt lat="43.49226" lon="6.22843">
        <ele>130.9</ele>
        <time>2025-10-13T12:07:10.000Z</time>
      </trkpt>
      <trkpt lat="43.49224" lon="6.2283">
        <ele>128.7</ele>
        <time>2025-10-13T12:07:25.000Z</time>
      </trkpt>
      <trkpt lat="43.49218" lon="6.2282">
        <ele>124.9</ele>
        <time>2025-10-13T12:07:38.000Z</time>
      </trkpt>
      <trkpt lat="43.49213" lon="6.22809">
        <ele>123</ele>
        <time>2025-10-13T12:07:56.000Z</time>
      </trkpt>
      <trkpt lat="43.49206" lon="6.22801">
        <ele>122.1</ele>
        <time>2025-10-13T12:08:09.000Z</time>
      </trkpt>
      <trkpt lat="43.49197" lon="6.22795">
        <ele>121.2</ele>
        <time>2025-10-13T12:08:20.000Z</time>
      </trkpt>
      <trkpt lat="43.49191" lon="6.22785">
        <ele>123</ele>
        <time>2025-10-13T12:08:32.000Z</time>
      </trkpt>
      <trkpt lat="43.49193" lon="6.22772">
        <ele>125.2</ele>
        <time>2025-10-13T12:08:42.000Z</time>
      </trkpt>
      <trkpt lat="43.49198" lon="6.22762">
        <ele>120.3</ele>
        <time>2025-10-13T12:08:47.000Z</time>
      </trkpt>
      <trkpt lat="43.49207" lon="6.22759">
        <ele>117.2</ele>
        <time>2025-10-13T12:08:57.000Z</time>
      </trkpt>
      <trkpt lat="43.49215" lon="6.22753">
        <ele>116.7</ele>
        <time>2025-10-13T12:09:08.000Z</time>
      </trkpt>
      <trkpt lat="43.49224" lon="6.22746">
        <ele>116.1</ele>
        <time>2025-10-13T12:09:18.000Z</time>
      </trkpt>
      <trkpt lat="43.4923" lon="6.22736">
        <ele>115.9</ele>
        <time>2025-10-13T12:09:28.000Z</time>
      </trkpt>
      <trkpt lat="43.49235" lon="6.22725">
        <ele>115.6</ele>
        <time>2025-10-13T12:09:37.000Z</time>
      </trkpt>
      <trkpt lat="43.49241" lon="6.22715">
        <ele>118.4</ele>
        <time>2025-10-13T12:09:50.000Z</time>
      </trkpt>
      <trkpt lat="43.49247" lon="6.22704">
        <ele>118.8</ele>
        <time>2025-10-13T12:10:00.000Z</time>
      </trkpt>
      <trkpt lat="43.49254" lon="6.22695">
        <ele>120.8</ele>
        <time>2025-10-13T12:10:10.000Z</time>
      </trkpt>
      <trkpt lat="43.4926" lon="6.22685">
        <ele>123.3</ele>
        <time>2025-10-13T12:10:19.000Z</time>
      </trkpt>
      <trkpt lat="43.49264" lon="6.22674">
        <ele>118</ele>
        <time>2025-10-13T12:10:28.000Z</time>
      </trkpt>
      <trkpt lat="43.49267" lon="6.22662">
        <ele>118</ele>
        <time>2025-10-13T12:10:39.000Z</time>
      </trkpt>
      <trkpt lat="43.4927" lon="6.22649">
        <ele>114.3</ele>
        <time>2025-10-13T12:10:50.000Z</time>
      </trkpt>
      <trkpt lat="43.4927" lon="6.22636">
        <ele>112.4</ele>
        <time>2025-10-13T12:10:59.000Z</time>
      </trkpt>
      <trkpt lat="43.49268" lon="6.22622">
        <ele>113</ele>
        <time>2025-10-13T12:11:09.000Z</time>
      </trkpt>
      <trkpt lat="43.4927" lon="6.22609">
        <ele>113</ele>
        <time>2025-10-13T12:11:19.000Z</time>
      </trkpt>
      <trkpt lat="43.49272" lon="6.22597">
        <ele>114.4</ele>
        <time>2025-10-13T12:11:29.000Z</time>
      </trkpt>
      <trkpt lat="43.49272" lon="6.22583">
        <ele>116.1</ele>
        <time>2025-10-13T12:11:40.000Z</time>
      </trkpt>
      <trkpt lat="43.49273" lon="6.2257">
        <ele>116.8</ele>
        <time>2025-10-13T12:11:51.000Z</time>
      </trkpt>
      <trkpt lat="43.49277" lon="6.22559">
        <ele>117.7</ele>
        <time>2025-10-13T12:12:08.000Z</time>
      </trkpt>
      <trkpt lat="43.49278" lon="6.22546">
        <ele>118.1</ele>
        <time>2025-10-13T12:13:31.000Z</time>
      </trkpt>
      <trkpt lat="43.49277" lon="6.22533">
        <ele>116.4</ele>
        <time>2025-10-13T12:13:43.000Z</time>
      </trkpt>
      <trkpt lat="43.49275" lon="6.2252">
        <ele>115.4</ele>
        <time>2025-10-13T12:13:52.000Z</time>
      </trkpt>
      <trkpt lat="43.49269" lon="6.22511">
        <ele>118.2</ele>
        <time>2025-10-13T12:14:13.000Z</time>
      </trkpt>
      <trkpt lat="43.4926" lon="6.22511">
        <ele>121.2</ele>
        <time>2025-10-13T12:14:32.000Z</time>
      </trkpt>
      <trkpt lat="43.49263" lon="6.22523">
        <ele>123.5</ele>
        <time>2025-10-13T12:15:33.000Z</time>
      </trkpt>
      <trkpt lat="43.49257" lon="6.22511">
        <ele>124.3</ele>
        <time>2025-10-13T12:16:05.000Z</time>
      </trkpt>
      <trkpt lat="43.4925" lon="6.22504">
        <ele>124.1</ele>
        <time>2025-10-13T12:16:14.000Z</time>
      </trkpt>
      <trkpt lat="43.4924" lon="6.22504">
        <ele>124.6</ele>
        <time>2025-10-13T12:16:44.000Z</time>
      </trkpt>
      <trkpt lat="43.49234" lon="6.22515">
        <ele>124.7</ele>
        <time>2025-10-13T12:16:57.000Z</time>
      </trkpt>
      <trkpt lat="43.49229" lon="6.22525">
        <ele>123.7</ele>
        <time>2025-10-13T12:17:07.000Z</time>
      </trkpt>
      <trkpt lat="43.49226" lon="6.22537">
        <ele>125.1</ele>
        <time>2025-10-13T12:17:17.000Z</time>
      </trkpt>
      <trkpt lat="43.49221" lon="6.22548">
        <ele>121.6</ele>
        <time>2025-10-13T12:17:29.000Z</time>
      </trkpt>
      <trkpt lat="43.49215" lon="6.22557">
        <ele>117.8</ele>
        <time>2025-10-13T12:18:01.000Z</time>
      </trkpt>
      <trkpt lat="43.49211" lon="6.22569">
        <ele>116.5</ele>
        <time>2025-10-13T12:18:11.000Z</time>
      </trkpt>
      <trkpt lat="43.49205" lon="6.22579">
        <ele>117.4</ele>
        <time>2025-10-13T12:18:20.000Z</time>
      </trkpt>
      <trkpt lat="43.49201" lon="6.22591">
        <ele>117.1</ele>
        <time>2025-10-13T12:18:32.000Z</time>
      </trkpt>
      <trkpt lat="43.49196" lon="6.22603">
        <ele>118.6</ele>
        <time>2025-10-13T12:18:41.000Z</time>
      </trkpt>
      <trkpt lat="43.49194" lon="6.22616">
        <ele>117.4</ele>
        <time>2025-10-13T12:18:52.000Z</time>
      </trkpt>
      <trkpt lat="43.4919" lon="6.22628">
        <ele>119.6</ele>
        <time>2025-10-13T12:19:01.000Z</time>
      </trkpt>
      <trkpt lat="43.49184" lon="6.22638">
        <ele>118.8</ele>
        <time>2025-10-13T12:19:10.000Z</time>
      </trkpt>
      <trkpt lat="43.49177" lon="6.22647">
        <ele>122</ele>
        <time>2025-10-13T12:19:20.000Z</time>
      </trkpt>
      <trkpt lat="43.4917" lon="6.22654">
        <ele>122.8</ele>
        <time>2025-10-13T12:19:44.000Z</time>
      </trkpt>
      <trkpt lat="43.49161" lon="6.22659">
        <ele>122.9</ele>
        <time>2025-10-13T12:20:06.000Z</time>
      </trkpt>
      <trkpt lat="43.49152" lon="6.22663">
        <ele>119.1</ele>
        <time>2025-10-13T12:20:18.000Z</time>
      </trkpt>
      <trkpt lat="43.49144" lon="6.22671">
        <ele>118.9</ele>
        <time>2025-10-13T12:20:28.000Z</time>
      </trkpt>
      <trkpt lat="43.49136" lon="6.22676">
        <ele>120.1</ele>
        <time>2025-10-13T12:20:36.000Z</time>
      </trkpt>
      <trkpt lat="43.49127" lon="6.22679">
        <ele>123.2</ele>
        <time>2025-10-13T12:20:47.000Z</time>
      </trkpt>
      <trkpt lat="43.49121" lon="6.22689">
        <ele>122.4</ele>
        <time>2025-10-13T12:20:58.000Z</time>
      </trkpt>
      <trkpt lat="43.49115" lon="6.22698">
        <ele>123.7</ele>
        <time>2025-10-13T12:21:31.000Z</time>
      </trkpt>
      <trkpt lat="43.49105" lon="6.227">
        <ele>117.6</ele>
        <time>2025-10-13T12:21:58.000Z</time>
      </trkpt>
      <trkpt lat="43.49114" lon="6.22698">
        <ele>118.8</ele>
        <time>2025-10-13T12:23:27.000Z</time>
      </trkpt>
      <trkpt lat="43.49122" lon="6.2269">
        <ele>120.4</ele>
        <time>2025-10-13T12:23:43.000Z</time>
      </trkpt>
      <trkpt lat="43.49126" lon="6.22679">
        <ele>120.9</ele>
        <time>2025-10-13T12:24:03.000Z</time>
      </trkpt>
      <trkpt lat="43.49122" lon="6.22667">
        <ele>118</ele>
        <time>2025-10-13T12:24:21.000Z</time>
      </trkpt>
      <trkpt lat="43.4912" lon="6.22654">
        <ele>121.1</ele>
        <time>2025-10-13T12:24:46.000Z</time>
      </trkpt>
      <trkpt lat="43.49113" lon="6.22647">
        <ele>119.8</ele>
        <time>2025-10-13T12:24:57.000Z</time>
      </trkpt>
      <trkpt lat="43.49104" lon="6.22645">
        <ele>118.9</ele>
        <time>2025-10-13T12:25:10.000Z</time>
      </trkpt>
      <trkpt lat="43.49094" lon="6.22645">
        <ele>121.2</ele>
        <time>2025-10-13T12:25:28.000Z</time>
      </trkpt>
      <trkpt lat="43.49084" lon="6.22642">
        <ele>122.4</ele>
        <time>2025-10-13T12:25:38.000Z</time>
      </trkpt>
      <trkpt lat="43.49075" lon="6.2264">
        <ele>122.9</ele>
        <time>2025-10-13T12:25:48.000Z</time>
      </trkpt>
      <trkpt lat="43.49066" lon="6.22641">
        <ele>121.1</ele>
        <time>2025-10-13T12:26:13.000Z</time>
      </trkpt>
      <trkpt lat="43.49057" lon="6.22638">
        <ele>121.1</ele>
        <time>2025-10-13T12:26:24.000Z</time>
      </trkpt>
      <trkpt lat="43.49049" lon="6.22632">
        <ele>118.9</ele>
        <time>2025-10-13T12:26:33.000Z</time>
      </trkpt>
      <trkpt lat="43.4904" lon="6.22628">
        <ele>118</ele>
        <time>2025-10-13T12:26:42.000Z</time>
      </trkpt>
      <trkpt lat="43.49031" lon="6.22624">
        <ele>118.9</ele>
        <time>2025-10-13T12:26:52.000Z</time>
      </trkpt>
      <trkpt lat="43.49022" lon="6.22617">
        <ele>119.1</ele>
        <time>2025-10-13T12:27:31.000Z</time>
      </trkpt>
      <trkpt lat="43.49014" lon="6.2261">
        <ele>119.6</ele>
        <time>2025-10-13T12:27:42.000Z</time>
      </trkpt>
      <trkpt lat="43.49009" lon="6.226">
        <ele>118.9</ele>
        <time>2025-10-13T12:28:07.000Z</time>
      </trkpt>
      <trkpt lat="43.49007" lon="6.22587">
        <ele>118.9</ele>
        <time>2025-10-13T12:28:22.000Z</time>
      </trkpt>
      <trkpt lat="43.49006" lon="6.22574">
        <ele>119.8</ele>
        <time>2025-10-13T12:28:52.000Z</time>
      </trkpt>
      <trkpt lat="43.49009" lon="6.22562">
        <ele>118.3</ele>
        <time>2025-10-13T12:29:09.000Z</time>
      </trkpt>
      <trkpt lat="43.49011" lon="6.2255">
        <ele>118.9</ele>
        <time>2025-10-13T12:29:23.000Z</time>
      </trkpt>
      <trkpt lat="43.49013" lon="6.22537">
        <ele>122.7</ele>
        <time>2025-10-13T12:29:40.000Z</time>
      </trkpt>
      <trkpt lat="43.49015" lon="6.22525">
        <ele>123.4</ele>
        <time>2025-10-13T12:29:54.000Z</time>
      </trkpt>
      <trkpt lat="43.49016" lon="6.22512">
        <ele>126</ele>
        <time>2025-10-13T12:30:10.000Z</time>
      </trkpt>
      <trkpt lat="43.49019" lon="6.225">
        <ele>128.5</ele>
        <time>2025-10-13T12:30:26.000Z</time>
      </trkpt>
      <trkpt lat="43.49021" lon="6.22487">
        <ele>128</ele>
        <time>2025-10-13T12:30:40.000Z</time>
      </trkpt>
      <trkpt lat="43.49024" lon="6.22475">
        <ele>128.8</ele>
        <time>2025-10-13T12:30:56.000Z</time>
      </trkpt>
      <trkpt lat="43.49028" lon="6.22464">
        <ele>130.8</ele>
        <time>2025-10-13T12:31:08.000Z</time>
      </trkpt>
      <trkpt lat="43.49031" lon="6.22452">
        <ele>132.6</ele>
        <time>2025-10-13T12:31:24.000Z</time>
      </trkpt>
      <trkpt lat="43.49037" lon="6.22441">
        <ele>130.3</ele>
        <time>2025-10-13T12:31:39.000Z</time>
      </trkpt>
      <trkpt lat="43.49042" lon="6.22431">
        <ele>131.3</ele>
        <time>2025-10-13T12:31:52.000Z</time>
      </trkpt>
      <trkpt lat="43.49047" lon="6.2242">
        <ele>134.6</ele>
        <time>2025-10-13T12:32:04.000Z</time>
      </trkpt>
      <trkpt lat="43.49053" lon="6.2241">
        <ele>136.2</ele>
        <time>2025-10-13T12:32:14.000Z</time>
      </trkpt>
      <trkpt lat="43.49057" lon="6.22399">
        <ele>136.7</ele>
        <time>2025-10-13T12:32:25.000Z</time>
      </trkpt>
      <trkpt lat="43.49064" lon="6.22389">
        <ele>136.8</ele>
        <time>2025-10-13T12:32:38.000Z</time>
      </trkpt>
      <trkpt lat="43.49067" lon="6.22377">
        <ele>139.2</ele>
        <time>2025-10-13T12:32:51.000Z</time>
      </trkpt>
      <trkpt lat="43.4906" lon="6.22386">
        <ele>137.5</ele>
        <time>2025-10-13T12:33:11.000Z</time>
      </trkpt>
      <trkpt lat="43.49053" lon="6.22395">
        <ele>138.4</ele>
        <time>2025-10-13T12:33:26.000Z</time>
      </trkpt>
      <trkpt lat="43.49046" lon="6.22403">
        <ele>137.6</ele>
        <time>2025-10-13T12:33:39.000Z</time>
      </trkpt>
      <trkpt lat="43.49039" lon="6.22411">
        <ele>137.6</ele>
        <time>2025-10-13T12:33:52.000Z</time>
      </trkpt>
      <trkpt lat="43.49032" lon="6.22419">
        <ele>142</ele>
        <time>2025-10-13T12:34:05.000Z</time>
      </trkpt>
      <trkpt lat="43.49024" lon="6.22428">
        <ele>143.8</ele>
        <time>2025-10-13T12:34:22.000Z</time>
      </trkpt>
      <trkpt lat="43.49017" lon="6.22435">
        <ele>144.3</ele>
        <time>2025-10-13T12:34:36.000Z</time>
      </trkpt>
      <trkpt lat="43.49009" lon="6.22443">
        <ele>148.9</ele>
        <time>2025-10-13T12:34:53.000Z</time>
      </trkpt>
      <trkpt lat="43.49002" lon="6.2245">
        <ele>151.7</ele>
        <time>2025-10-13T12:35:03.000Z</time>
      </trkpt>
      <trkpt lat="43.48995" lon="6.22459">
        <ele>149.8</ele>
        <time>2025-10-13T12:35:14.000Z</time>
      </trkpt>
      <trkpt lat="43.48989" lon="6.22469">
        <ele>149.7</ele>
        <time>2025-10-13T12:35:31.000Z</time>
      </trkpt>
      <trkpt lat="43.48983" lon="6.22479">
        <ele>152.2</ele>
        <time>2025-10-13T12:35:45.000Z</time>
      </trkpt>
      <trkpt lat="43.48977" lon="6.22489">
        <ele>154.2</ele>
        <time>2025-10-13T12:36:14.000Z</time>
      </trkpt>
      <trkpt lat="43.4897" lon="6.22498">
        <ele>155.7</ele>
        <time>2025-10-13T12:36:32.000Z</time>
      </trkpt>
      <trkpt lat="43.48963" lon="6.22507">
        <ele>155.8</ele>
        <time>2025-10-13T12:36:45.000Z</time>
      </trkpt>
      <trkpt lat="43.48956" lon="6.22516">
        <ele>154.1</ele>
        <time>2025-10-13T12:36:57.000Z</time>
      </trkpt>
      <trkpt lat="43.48949" lon="6.22522">
        <ele>155.3</ele>
        <time>2025-10-13T12:37:09.000Z</time>
      </trkpt>
      <trkpt lat="43.48941" lon="6.2253">
        <ele>156.5</ele>
        <time>2025-10-13T12:37:32.000Z</time>
      </trkpt>
      <trkpt lat="43.48932" lon="6.22533">
        <ele>156.6</ele>
        <time>2025-10-13T12:37:45.000Z</time>
      </trkpt>
      <trkpt lat="43.48923" lon="6.22535">
        <ele>156.7</ele>
        <time>2025-10-13T12:37:58.000Z</time>
      </trkpt>
      <trkpt lat="43.48914" lon="6.22539">
        <ele>159.1</ele>
        <time>2025-10-13T12:38:09.000Z</time>
      </trkpt>
      <trkpt lat="43.48905" lon="6.22543">
        <ele>158</ele>
        <time>2025-10-13T12:38:22.000Z</time>
      </trkpt>
      <trkpt lat="43.48899" lon="6.22553">
        <ele>161.5</ele>
        <time>2025-10-13T12:38:48.000Z</time>
      </trkpt>
      <trkpt lat="43.48893" lon="6.22562">
        <ele>164.6</ele>
        <time>2025-10-13T12:40:59.000Z</time>
      </trkpt>
      <trkpt lat="43.48884" lon="6.22556">
        <ele>165.6</ele>
        <time>2025-10-13T12:41:20.000Z</time>
      </trkpt>
      <trkpt lat="43.48877" lon="6.22549">
        <ele>165.9</ele>
        <time>2025-10-13T12:41:31.000Z</time>
      </trkpt>
      <trkpt lat="43.48868" lon="6.2255">
        <ele>168.3</ele>
        <time>2025-10-13T12:42:38.000Z</time>
      </trkpt>
      <trkpt lat="43.48865" lon="6.22562">
        <ele>167.5</ele>
        <time>2025-10-13T12:42:51.000Z</time>
      </trkpt>
      <trkpt lat="43.48863" lon="6.22575">
        <ele>167</ele>
        <time>2025-10-13T12:43:02.000Z</time>
      </trkpt>
      <trkpt lat="43.48861" lon="6.22589">
        <ele>166.6</ele>
        <time>2025-10-13T12:43:13.000Z</time>
      </trkpt>
      <trkpt lat="43.48857" lon="6.226">
        <ele>169.5</ele>
        <time>2025-10-13T12:43:24.000Z</time>
      </trkpt>
      <trkpt lat="43.48855" lon="6.22612">
        <ele>166.8</ele>
        <time>2025-10-13T12:43:42.000Z</time>
      </trkpt>
      <trkpt lat="43.48857" lon="6.22626">
        <ele>165.3</ele>
        <time>2025-10-13T12:43:52.000Z</time>
      </trkpt>
      <trkpt lat="43.4886" lon="6.22639">
        <ele>164</ele>
        <time>2025-10-13T12:44:03.000Z</time>
      </trkpt>
      <trkpt lat="43.4886" lon="6.22652">
        <ele>165.4</ele>
        <time>2025-10-13T12:44:16.000Z</time>
      </trkpt>
      <trkpt lat="43.48858" lon="6.22665">
        <ele>164</ele>
        <time>2025-10-13T12:44:26.000Z</time>
      </trkpt>
      <trkpt lat="43.48858" lon="6.22677">
        <ele>165</ele>
        <time>2025-10-13T12:44:37.000Z</time>
      </trkpt>
      <trkpt lat="43.48857" lon="6.22691">
        <ele>161.7</ele>
        <time>2025-10-13T12:44:48.000Z</time>
      </trkpt>
      <trkpt lat="43.48856" lon="6.22704">
        <ele>162.1</ele>
        <time>2025-10-13T12:45:00.000Z</time>
      </trkpt>
      <trkpt lat="43.48854" lon="6.22717">
        <ele>162.4</ele>
        <time>2025-10-13T12:45:11.000Z</time>
      </trkpt>
      <trkpt lat="43.48854" lon="6.2273">
        <ele>164.7</ele>
        <time>2025-10-13T12:45:40.000Z</time>
      </trkpt>
      <trkpt lat="43.48853" lon="6.22743">
        <ele>165</ele>
        <time>2025-10-13T12:45:52.000Z</time>
      </trkpt>
      <trkpt lat="43.48853" lon="6.22756">
        <ele>166.4</ele>
        <time>2025-10-13T12:46:02.000Z</time>
      </trkpt>
      <trkpt lat="43.4885" lon="6.22768">
        <ele>167</ele>
        <time>2025-10-13T12:46:11.000Z</time>
      </trkpt>
      <trkpt lat="43.48845" lon="6.22779">
        <ele>167.8</ele>
        <time>2025-10-13T12:46:24.000Z</time>
      </trkpt>
      <trkpt lat="43.48843" lon="6.22792">
        <ele>169.1</ele>
        <time>2025-10-13T12:46:36.000Z</time>
      </trkpt>
      <trkpt lat="43.48842" lon="6.22805">
        <ele>171.7</ele>
        <time>2025-10-13T12:46:51.000Z</time>
      </trkpt>
      <trkpt lat="43.48837" lon="6.22816">
        <ele>170.1</ele>
        <time>2025-10-13T12:47:02.000Z</time>
      </trkpt>
      <trkpt lat="43.48833" lon="6.22827">
        <ele>165.9</ele>
        <time>2025-10-13T12:47:11.000Z</time>
      </trkpt>
      <trkpt lat="43.48828" lon="6.22838">
        <ele>167.2</ele>
        <time>2025-10-13T12:47:24.000Z</time>
      </trkpt>
      <trkpt lat="43.48824" lon="6.2285">
        <ele>167.8</ele>
        <time>2025-10-13T12:47:36.000Z</time>
      </trkpt>
      <trkpt lat="43.48819" lon="6.22861">
        <ele>165.3</ele>
        <time>2025-10-13T12:47:47.000Z</time>
      </trkpt>
      <trkpt lat="43.48815" lon="6.22872">
        <ele>165</ele>
        <time>2025-10-13T12:47:58.000Z</time>
      </trkpt>
      <trkpt lat="43.48811" lon="6.22884">
        <ele>165.1</ele>
        <time>2025-10-13T12:48:09.000Z</time>
      </trkpt>
      <trkpt lat="43.48808" lon="6.22896">
        <ele>164.8</ele>
        <time>2025-10-13T12:48:19.000Z</time>
      </trkpt>
      <trkpt lat="43.48806" lon="6.2291">
        <ele>165</ele>
        <time>2025-10-13T12:48:35.000Z</time>
      </trkpt>
      <trkpt lat="43.48803" lon="6.22922">
        <ele>166.5</ele>
        <time>2025-10-13T12:48:46.000Z</time>
      </trkpt>
      <trkpt lat="43.48799" lon="6.22933">
        <ele>166.6</ele>
        <time>2025-10-13T12:49:01.000Z</time>
      </trkpt>
      <trkpt lat="43.48795" lon="6.22945">
        <ele>168.2</ele>
        <time>2025-10-13T12:49:14.000Z</time>
      </trkpt>
      <trkpt lat="43.4879" lon="6.22955">
        <ele>168.9</ele>
        <time>2025-10-13T12:49:24.000Z</time>
      </trkpt>
      <trkpt lat="43.48785" lon="6.22967">
        <ele>167.5</ele>
        <time>2025-10-13T12:49:37.000Z</time>
      </trkpt>
      <trkpt lat="43.48782" lon="6.22979">
        <ele>169.3</ele>
        <time>2025-10-13T12:49:55.000Z</time>
      </trkpt>
      <trkpt lat="43.48779" lon="6.22992">
        <ele>169.9</ele>
        <time>2025-10-13T12:50:11.000Z</time>
      </trkpt>
      <trkpt lat="43.48775" lon="6.23003">
        <ele>162.2</ele>
        <time>2025-10-13T12:50:23.000Z</time>
      </trkpt>
      <trkpt lat="43.48773" lon="6.23016">
        <ele>161.2</ele>
        <time>2025-10-13T12:50:33.000Z</time>
      </trkpt>
      <trkpt lat="43.48772" lon="6.23029">
        <ele>159.4</ele>
        <time>2025-10-13T12:50:48.000Z</time>
      </trkpt>
      <trkpt lat="43.48769" lon="6.23041">
        <ele>160.8</ele>
        <time>2025-10-13T12:50:57.000Z</time>
      </trkpt>
      <trkpt lat="43.48767" lon="6.23055">
        <ele>155.2</ele>
        <time>2025-10-13T12:51:09.000Z</time>
      </trkpt>
      <trkpt lat="43.48766" lon="6.23067">
        <ele>156</ele>
        <time>2025-10-13T12:51:17.000Z</time>
      </trkpt>
      <trkpt lat="43.48765" lon="6.23079">
        <ele>157</ele>
        <time>2025-10-13T12:51:28.000Z</time>
      </trkpt>
      <trkpt lat="43.48765" lon="6.23092">
        <ele>157.9</ele>
        <time>2025-10-13T12:51:43.000Z</time>
      </trkpt>
      <trkpt lat="43.48765" lon="6.23104">
        <ele>160</ele>
        <time>2025-10-13T12:52:01.000Z</time>
      </trkpt>
      <trkpt lat="43.48765" lon="6.23117">
        <ele>161.8</ele>
        <time>2025-10-13T12:52:13.000Z</time>
      </trkpt>
      <trkpt lat="43.48766" lon="6.2313">
        <ele>160.3</ele>
        <time>2025-10-13T12:52:30.000Z</time>
      </trkpt>
      <trkpt lat="43.48763" lon="6.23143">
        <ele>161.1</ele>
        <time>2025-10-13T12:52:40.000Z</time>
      </trkpt>
      <trkpt lat="43.48762" lon="6.23156">
        <ele>160.6</ele>
        <time>2025-10-13T12:52:53.000Z</time>
      </trkpt>
      <trkpt lat="43.48762" lon="6.23169">
        <ele>160.1</ele>
        <time>2025-10-13T12:53:03.000Z</time>
      </trkpt>
      <trkpt lat="43.48761" lon="6.23182">
        <ele>159.7</ele>
        <time>2025-10-13T12:53:16.000Z</time>
      </trkpt>
      <trkpt lat="43.48761" lon="6.23195">
        <ele>159.5</ele>
        <time>2025-10-13T12:53:27.000Z</time>
      </trkpt>
      <trkpt lat="43.4876" lon="6.23209">
        <ele>160</ele>
        <time>2025-10-13T12:53:38.000Z</time>
      </trkpt>
      <trkpt lat="43.48759" lon="6.23222">
        <ele>160.4</ele>
        <time>2025-10-13T12:53:47.000Z</time>
      </trkpt>
      <trkpt lat="43.48759" lon="6.23234">
        <ele>159.8</ele>
        <time>2025-10-13T12:53:56.000Z</time>
      </trkpt>
      <trkpt lat="43.4876" lon="6.23246">
        <ele>159.5</ele>
        <time>2025-10-13T12:54:05.000Z</time>
      </trkpt>
      <trkpt lat="43.48758" lon="6.2326">
        <ele>160.4</ele>
        <time>2025-10-13T12:54:20.000Z</time>
      </trkpt>
      <trkpt lat="43.48759" lon="6.23273">
        <ele>159.9</ele>
        <time>2025-10-13T12:54:35.000Z</time>
      </trkpt>
      <trkpt lat="43.48763" lon="6.23285">
        <ele>159.4</ele>
        <time>2025-10-13T12:54:46.000Z</time>
      </trkpt>
      <trkpt lat="43.48766" lon="6.23297">
        <ele>159.8</ele>
        <time>2025-10-13T12:54:57.000Z</time>
      </trkpt>
      <trkpt lat="43.48769" lon="6.23309">
        <ele>158.9</ele>
        <time>2025-10-13T12:55:11.000Z</time>
      </trkpt>
      <trkpt lat="43.48771" lon="6.23321">
        <ele>157.9</ele>
        <time>2025-10-13T12:55:25.000Z</time>
      </trkpt>
      <trkpt lat="43.48776" lon="6.23333">
        <ele>156.6</ele>
        <time>2025-10-13T12:55:40.000Z</time>
      </trkpt>
      <trkpt lat="43.48776" lon="6.23345">
        <ele>158.9</ele>
        <time>2025-10-13T12:56:37.000Z</time>
      </trkpt>
      <trkpt lat="43.48768" lon="6.23352">
        <ele>157.6</ele>
        <time>2025-10-13T12:59:14.000Z</time>
      </trkpt>
      <trkpt lat="43.4876" lon="6.23348">
        <ele>154</ele>
        <time>2025-10-13T12:59:32.000Z</time>
      </trkpt>
      <trkpt lat="43.48751" lon="6.23346">
        <ele>152.8</ele>
        <time>2025-10-13T12:59:49.000Z</time>
      </trkpt>
      <trkpt lat="43.48742" lon="6.23351">
        <ele>152.1</ele>
        <time>2025-10-13T13:00:21.000Z</time>
      </trkpt>
      <trkpt lat="43.48736" lon="6.23361">
        <ele>148.8</ele>
        <time>2025-10-13T13:00:49.000Z</time>
      </trkpt>
      <trkpt lat="43.4873" lon="6.23371">
        <ele>149.9</ele>
        <time>2025-10-13T13:01:06.000Z</time>
      </trkpt>
      <trkpt lat="43.48724" lon="6.2338">
        <ele>147.4</ele>
        <time>2025-10-13T13:01:22.000Z</time>
      </trkpt>
      <trkpt lat="43.48716" lon="6.23389">
        <ele>145.8</ele>
        <time>2025-10-13T13:01:37.000Z</time>
      </trkpt>
      <trkpt lat="43.48708" lon="6.23393">
        <ele>140.5</ele>
        <time>2025-10-13T13:01:51.000Z</time>
      </trkpt>
      <trkpt lat="43.487" lon="6.23386">
        <ele>138.5</ele>
        <time>2025-10-13T13:02:06.000Z</time>
      </trkpt>
      <trkpt lat="43.48694" lon="6.23376">
        <ele>137.6</ele>
        <time>2025-10-13T13:02:18.000Z</time>
      </trkpt>
      <trkpt lat="43.4869" lon="6.23364">
        <ele>136.1</ele>
        <time>2025-10-13T13:02:31.000Z</time>
      </trkpt>
      <trkpt lat="43.48686" lon="6.23353">
        <ele>136.2</ele>
        <time>2025-10-13T13:02:42.000Z</time>
      </trkpt>
      <trkpt lat="43.48683" lon="6.23341">
        <ele>133.8</ele>
        <time>2025-10-13T13:03:09.000Z</time>
      </trkpt>
      <trkpt lat="43.48683" lon="6.23328">
        <ele>131.7</ele>
        <time>2025-10-13T13:03:30.000Z</time>
      </trkpt>
      <trkpt lat="43.48684" lon="6.23314">
        <ele>127.6</ele>
        <time>2025-10-13T13:03:45.000Z</time>
      </trkpt>
      <trkpt lat="43.48684" lon="6.23301">
        <ele>130.5</ele>
        <time>2025-10-13T13:03:55.000Z</time>
      </trkpt>
      <trkpt lat="43.48682" lon="6.23288">
        <ele>132.7</ele>
        <time>2025-10-13T13:04:07.000Z</time>
      </trkpt>
      <trkpt lat="43.48677" lon="6.23277">
        <ele>134.6</ele>
        <time>2025-10-13T13:04:17.000Z</time>
      </trkpt>
      <trkpt lat="43.4867" lon="6.23269">
        <ele>136.3</ele>
        <time>2025-10-13T13:04:28.000Z</time>
      </trkpt>
      <trkpt lat="43.48664" lon="6.23258">
        <ele>133.1</ele>
        <time>2025-10-13T13:04:40.000Z</time>
      </trkpt>
      <trkpt lat="43.48655" lon="6.23254">
        <ele>132.4</ele>
        <time>2025-10-13T13:04:52.000Z</time>
      </trkpt>
      <trkpt lat="43.48651" lon="6.23243">
        <ele>131.7</ele>
        <time>2025-10-13T13:05:58.000Z</time>
      </trkpt>
      <trkpt lat="43.48643" lon="6.23237">
        <ele>133.5</ele>
        <time>2025-10-13T13:06:11.000Z</time>
      </trkpt>
      <trkpt lat="43.48634" lon="6.23236">
        <ele>133.9</ele>
        <time>2025-10-13T13:06:28.000Z</time>
      </trkpt>
      <trkpt lat="43.48625" lon="6.2323">
        <ele>132.8</ele>
        <time>2025-10-13T13:06:39.000Z</time>
      </trkpt>
      <trkpt lat="43.48621" lon="6.23218">
        <ele>130.7</ele>
        <time>2025-10-13T13:06:48.000Z</time>
      </trkpt>
      <trkpt lat="43.48618" lon="6.23206">
        <ele>131.4</ele>
        <time>2025-10-13T13:07:00.000Z</time>
      </trkpt>
      <trkpt lat="43.48616" lon="6.23194">
        <ele>131.4</ele>
        <time>2025-10-13T13:07:11.000Z</time>
      </trkpt>
      <trkpt lat="43.48613" lon="6.2318">
        <ele>130.2</ele>
        <time>2025-10-13T13:07:21.000Z</time>
      </trkpt>
      <trkpt lat="43.48611" lon="6.23167">
        <ele>129.3</ele>
        <time>2025-10-13T13:07:31.000Z</time>
      </trkpt>
      <trkpt lat="43.4861" lon="6.23154">
        <ele>129.4</ele>
        <time>2025-10-13T13:07:41.000Z</time>
      </trkpt>
      <trkpt lat="43.48604" lon="6.23163">
        <ele>127.5</ele>
        <time>2025-10-13T13:08:03.000Z</time>
      </trkpt>
      <trkpt lat="43.48602" lon="6.23176">
        <ele>126.3</ele>
        <time>2025-10-13T13:08:20.000Z</time>
      </trkpt>
      <trkpt lat="43.48601" lon="6.23189">
        <ele>124.8</ele>
        <time>2025-10-13T13:08:30.000Z</time>
      </trkpt>
      <trkpt lat="43.48599" lon="6.23201">
        <ele>124.4</ele>
        <time>2025-10-13T13:08:40.000Z</time>
      </trkpt>
      <trkpt lat="43.48597" lon="6.23214">
        <ele>123.1</ele>
        <time>2025-10-13T13:08:50.000Z</time>
      </trkpt>
      <trkpt lat="43.48594" lon="6.23227">
        <ele>122.9</ele>
        <time>2025-10-13T13:08:59.000Z</time>
      </trkpt>
      <trkpt lat="43.48592" lon="6.23239">
        <ele>121.2</ele>
        <time>2025-10-13T13:09:09.000Z</time>
      </trkpt>
      <trkpt lat="43.4859" lon="6.23251">
        <ele>120.8</ele>
        <time>2025-10-13T13:09:18.000Z</time>
      </trkpt>
      <trkpt lat="43.48589" lon="6.23264">
        <ele>119.4</ele>
        <time>2025-10-13T13:09:29.000Z</time>
      </trkpt>
      <trkpt lat="43.48588" lon="6.23278">
        <ele>118.3</ele>
        <time>2025-10-13T13:09:40.000Z</time>
      </trkpt>
      <trkpt lat="43.48587" lon="6.23291">
        <ele>119.1</ele>
        <time>2025-10-13T13:09:53.000Z</time>
      </trkpt>
      <trkpt lat="43.48587" lon="6.23304">
        <ele>121.5</ele>
        <time>2025-10-13T13:10:09.000Z</time>
      </trkpt>
      <trkpt lat="43.48584" lon="6.23316">
        <ele>121.3</ele>
        <time>2025-10-13T13:10:24.000Z</time>
      </trkpt>
      <trkpt lat="43.48584" lon="6.2333">
        <ele>118.8</ele>
        <time>2025-10-13T13:10:38.000Z</time>
      </trkpt>
      <trkpt lat="43.48584" lon="6.23342">
        <ele>120.9</ele>
        <time>2025-10-13T13:10:46.000Z</time>
      </trkpt>
      <trkpt lat="43.48585" lon="6.23355">
        <ele>123</ele>
        <time>2025-10-13T13:10:55.000Z</time>
      </trkpt>
      <trkpt lat="43.48586" lon="6.23367">
        <ele>122.7</ele>
        <time>2025-10-13T13:11:05.000Z</time>
      </trkpt>
      <trkpt lat="43.48586" lon="6.2338">
        <ele>123</ele>
        <time>2025-10-13T13:11:15.000Z</time>
      </trkpt>
      <trkpt lat="43.48589" lon="6.23392">
        <ele>123.3</ele>
        <time>2025-10-13T13:11:25.000Z</time>
      </trkpt>
      <trkpt lat="43.48592" lon="6.23404">
        <ele>123.8</ele>
        <time>2025-10-13T13:11:35.000Z</time>
      </trkpt>
      <trkpt lat="43.48593" lon="6.23417">
        <ele>124.7</ele>
        <time>2025-10-13T13:11:46.000Z</time>
      </trkpt>
      <trkpt lat="43.48597" lon="6.23429">
        <ele>126.1</ele>
        <time>2025-10-13T13:11:59.000Z</time>
      </trkpt>
      <trkpt lat="43.48597" lon="6.23442">
        <ele>126.1</ele>
        <time>2025-10-13T13:12:11.000Z</time>
      </trkpt>
      <trkpt lat="43.48599" lon="6.23454">
        <ele>126.2</ele>
        <time>2025-10-13T13:12:27.000Z</time>
      </trkpt>
      <trkpt lat="43.486" lon="6.23446">
        <ele>125</ele>
        <time>2025-10-13T13:13:53.000Z</time>
      </trkpt>
    </trkseg>
  </trk>
</gpx>